<?xml version="1.0" encoding="UTF-8" standalone="no" ?>
<gpx xmlns="http://www.topografix.com/GPX/1/1" xmlns:xsi="http://www.w3.org/2001/XMLSchema-instance" xsi:schemaLocation="http://www.topografix.com/GPX/1/1 http://www.topografix.com/GPX/1/1/gpx.xsd" version="1.1" creator="VisuGPX - https://www.visugpx.com">
  <metadata>
    <name>Pierrefiche-4Km</name>
    <desc><![CDATA[

]]></desc>
  </metadata>
  <trk>
    <name><![CDATA[Pierrefiche-4Km]]></name>
    <extensions>
      <line xmlns="http://www.topografix.com/GPX/gpx_style/0/2">
        <color>ff0019</color>
        <width>4</width>
          <extensions>
            <sens>1</sens>
          </extensions>
      </line>
    </extensions>
    <trkseg>
      <trkpt lat="44.10706" lon="3.21742">
        <ele>691.40002441406</ele>
        <time>2014-07-20T09:28:54Z</time>
      </trkpt>
      <trkpt lat="44.10709" lon="3.21742">
        <ele>691.19995117188</ele>
        <time>2014-07-20T09:29:31Z</time>
      </trkpt>
      <trkpt lat="44.10713" lon="3.21748">
        <ele>691.19995117188</ele>
        <time>2014-07-20T09:29:36Z</time>
      </trkpt>
      <trkpt lat="44.10718" lon="3.21746">
        <ele>692</ele>
        <time>2014-07-20T09:29:58Z</time>
      </trkpt>
      <trkpt lat="44.10729" lon="3.21747">
        <ele>692</ele>
        <time>2014-07-20T09:30:02Z</time>
      </trkpt>
      <trkpt lat="44.10733" lon="3.21747">
        <ele>692</ele>
        <time>2014-07-20T09:30:03Z</time>
      </trkpt>
      <trkpt lat="44.10756" lon="3.21746">
        <ele>692</ele>
        <time>2014-07-20T09:30:10Z</time>
      </trkpt>
      <trkpt lat="44.10772" lon="3.21746">
        <ele>692</ele>
        <time>2014-07-20T09:30:15Z</time>
      </trkpt>
      <trkpt lat="44.10789" lon="3.21751">
        <ele>692</ele>
        <time>2014-07-20T09:30:20Z</time>
      </trkpt>
      <trkpt lat="44.10797" lon="3.21757">
        <ele>692</ele>
        <time>2014-07-20T09:30:25Z</time>
      </trkpt>
      <trkpt lat="44.10797" lon="3.21762">
        <ele>693</ele>
        <time>2014-07-20T09:30:44Z</time>
      </trkpt>
      <trkpt lat="44.10797" lon="3.21768">
        <ele>693</ele>
        <time>2014-07-20T09:30:46Z</time>
      </trkpt>
      <trkpt lat="44.10797" lon="3.21779">
        <ele>693</ele>
        <time>2014-07-20T09:30:49Z</time>
      </trkpt>
      <trkpt lat="44.10799" lon="3.21793">
        <ele>693</ele>
        <time>2014-07-20T09:30:52Z</time>
      </trkpt>
      <trkpt lat="44.10801" lon="3.21798">
        <ele>693</ele>
        <time>2014-07-20T09:30:53Z</time>
      </trkpt>
      <trkpt lat="44.10807" lon="3.21808">
        <ele>691.59997558594</ele>
        <time>2014-07-20T09:30:55Z</time>
      </trkpt>
      <trkpt lat="44.1081" lon="3.21812">
        <ele>691</ele>
        <time>2014-07-20T09:30:56Z</time>
      </trkpt>
      <trkpt lat="44.10816" lon="3.21819">
        <ele>690.40002441406</ele>
        <time>2014-07-20T09:30:57Z</time>
      </trkpt>
      <trkpt lat="44.10821" lon="3.21827">
        <ele>689.80004882812</ele>
        <time>2014-07-20T09:30:58Z</time>
      </trkpt>
      <trkpt lat="44.10825" lon="3.21835">
        <ele>689</ele>
        <time>2014-07-20T09:30:59Z</time>
      </trkpt>
      <trkpt lat="44.10828" lon="3.21843">
        <ele>688.40002441406</ele>
        <time>2014-07-20T09:31:00Z</time>
      </trkpt>
      <trkpt lat="44.1083" lon="3.21851">
        <ele>687.59997558594</ele>
        <time>2014-07-20T09:31:01Z</time>
      </trkpt>
      <trkpt lat="44.10832" lon="3.21857">
        <ele>687</ele>
        <time>2014-07-20T09:31:02Z</time>
      </trkpt>
      <trkpt lat="44.10833" lon="3.21861">
        <ele>686.19995117188</ele>
        <time>2014-07-20T09:31:03Z</time>
      </trkpt>
      <trkpt lat="44.10836" lon="3.21866">
        <ele>684.59997558594</ele>
        <time>2014-07-20T09:31:05Z</time>
      </trkpt>
      <trkpt lat="44.10839" lon="3.21869">
        <ele>683.19995117188</ele>
        <time>2014-07-20T09:31:07Z</time>
      </trkpt>
      <trkpt lat="44.10841" lon="3.21872">
        <ele>682.19995117188</ele>
        <time>2014-07-20T09:31:09Z</time>
      </trkpt>
      <trkpt lat="44.10845" lon="3.21874">
        <ele>680.40002441406</ele>
        <time>2014-07-20T09:31:34Z</time>
      </trkpt>
      <trkpt lat="44.10849" lon="3.21877">
        <ele>680.40002441406</ele>
        <time>2014-07-20T09:31:36Z</time>
      </trkpt>
      <trkpt lat="44.10864" lon="3.2189">
        <ele>680.40002441406</ele>
        <time>2014-07-20T09:31:42Z</time>
      </trkpt>
      <trkpt lat="44.10884" lon="3.21906">
        <ele>680.40002441406</ele>
        <time>2014-07-20T09:31:49Z</time>
      </trkpt>
      <trkpt lat="44.10897" lon="3.21921">
        <ele>680.40002441406</ele>
        <time>2014-07-20T09:31:55Z</time>
      </trkpt>
      <trkpt lat="44.10911" lon="3.21934">
        <ele>681</ele>
        <time>2014-07-20T09:32:01Z</time>
      </trkpt>
      <trkpt lat="44.10915" lon="3.21938">
        <ele>681.80004882812</ele>
        <time>2014-07-20T09:32:03Z</time>
      </trkpt>
      <trkpt lat="44.10918" lon="3.21941">
        <ele>682.59997558594</ele>
        <time>2014-07-20T09:32:05Z</time>
      </trkpt>
      <trkpt lat="44.10924" lon="3.2195">
        <ele>682.59997558594</ele>
        <time>2014-07-20T09:32:09Z</time>
      </trkpt>
      <trkpt lat="44.10927" lon="3.21954">
        <ele>683</ele>
        <time>2014-07-20T09:32:11Z</time>
      </trkpt>
      <trkpt lat="44.1093" lon="3.21958">
        <ele>683.80004882812</ele>
        <time>2014-07-20T09:32:13Z</time>
      </trkpt>
      <trkpt lat="44.10933" lon="3.21962">
        <ele>684.59997558594</ele>
        <time>2014-07-20T09:32:15Z</time>
      </trkpt>
      <trkpt lat="44.10936" lon="3.21965">
        <ele>684.59997558594</ele>
        <time>2014-07-20T09:32:17Z</time>
      </trkpt>
      <trkpt lat="44.10945" lon="3.2198">
        <ele>685</ele>
        <time>2014-07-20T09:32:23Z</time>
      </trkpt>
      <trkpt lat="44.10947" lon="3.21982">
        <ele>685.40002441406</ele>
        <time>2014-07-20T09:32:24Z</time>
      </trkpt>
      <trkpt lat="44.10952" lon="3.21985">
        <ele>686.40002441406</ele>
        <time>2014-07-20T09:32:26Z</time>
      </trkpt>
      <trkpt lat="44.10961" lon="3.22004">
        <ele>687.19995117188</ele>
        <time>2014-07-20T09:32:33Z</time>
      </trkpt>
      <trkpt lat="44.10964" lon="3.2201">
        <ele>688</ele>
        <time>2014-07-20T09:32:35Z</time>
      </trkpt>
      <trkpt lat="44.10967" lon="3.22015">
        <ele>688.80004882812</ele>
        <time>2014-07-20T09:32:37Z</time>
      </trkpt>
      <trkpt lat="44.10969" lon="3.22021">
        <ele>688.80004882812</ele>
        <time>2014-07-20T09:32:39Z</time>
      </trkpt>
      <trkpt lat="44.10981" lon="3.22036">
        <ele>688.80004882812</ele>
        <time>2014-07-20T09:32:45Z</time>
      </trkpt>
      <trkpt lat="44.10998" lon="3.22046">
        <ele>688.80004882812</ele>
        <time>2014-07-20T09:32:53Z</time>
      </trkpt>
      <trkpt lat="44.11015" lon="3.22061">
        <ele>688.80004882812</ele>
        <time>2014-07-20T09:33:02Z</time>
      </trkpt>
      <trkpt lat="44.11026" lon="3.22078">
        <ele>689.19995117188</ele>
        <time>2014-07-20T09:33:08Z</time>
      </trkpt>
      <trkpt lat="44.11027" lon="3.22085">
        <ele>690</ele>
        <time>2014-07-20T09:33:10Z</time>
      </trkpt>
      <trkpt lat="44.11029" lon="3.22092">
        <ele>691</ele>
        <time>2014-07-20T09:33:12Z</time>
      </trkpt>
      <trkpt lat="44.11029" lon="3.22102">
        <ele>691</ele>
        <time>2014-07-20T09:33:15Z</time>
      </trkpt>
      <trkpt lat="44.11025" lon="3.22115">
        <ele>691</ele>
        <time>2014-07-20T09:33:20Z</time>
      </trkpt>
      <trkpt lat="44.11022" lon="3.22127">
        <ele>691.40002441406</ele>
        <time>2014-07-20T09:33:25Z</time>
      </trkpt>
      <trkpt lat="44.11022" lon="3.22132">
        <ele>692.19995117188</ele>
        <time>2014-07-20T09:33:27Z</time>
      </trkpt>
      <trkpt lat="44.11021" lon="3.22139">
        <ele>692.59997558594</ele>
        <time>2014-07-20T09:33:54Z</time>
      </trkpt>
      <trkpt lat="44.11021" lon="3.22149">
        <ele>692.59997558594</ele>
        <time>2014-07-20T09:33:58Z</time>
      </trkpt>
      <trkpt lat="44.11021" lon="3.22154">
        <ele>692.59997558594</ele>
        <time>2014-07-20T09:34:00Z</time>
      </trkpt>
      <trkpt lat="44.1102" lon="3.22166">
        <ele>693</ele>
        <time>2014-07-20T09:34:05Z</time>
      </trkpt>
      <trkpt lat="44.1102" lon="3.22171">
        <ele>693.80004882812</ele>
        <time>2014-07-20T09:34:07Z</time>
      </trkpt>
      <trkpt lat="44.11019" lon="3.22176">
        <ele>694.59997558594</ele>
        <time>2014-07-20T09:34:09Z</time>
      </trkpt>
      <trkpt lat="44.11017" lon="3.22188">
        <ele>694.59997558594</ele>
        <time>2014-07-20T09:34:14Z</time>
      </trkpt>
      <trkpt lat="44.11016" lon="3.22192">
        <ele>695.40002441406</ele>
        <time>2014-07-20T09:34:16Z</time>
      </trkpt>
      <trkpt lat="44.11016" lon="3.22197">
        <ele>696.19995117188</ele>
        <time>2014-07-20T09:34:18Z</time>
      </trkpt>
      <trkpt lat="44.11014" lon="3.22204">
        <ele>696.59997558594</ele>
        <time>2014-07-20T09:34:21Z</time>
      </trkpt>
      <trkpt lat="44.11013" lon="3.22221">
        <ele>697.19995117188</ele>
        <time>2014-07-20T09:34:28Z</time>
      </trkpt>
      <trkpt lat="44.11013" lon="3.22225">
        <ele>698</ele>
        <time>2014-07-20T09:34:30Z</time>
      </trkpt>
      <trkpt lat="44.11012" lon="3.2223">
        <ele>698.80004882812</ele>
        <time>2014-07-20T09:34:32Z</time>
      </trkpt>
      <trkpt lat="44.11012" lon="3.22239">
        <ele>698.80004882812</ele>
        <time>2014-07-20T09:34:36Z</time>
      </trkpt>
      <trkpt lat="44.11011" lon="3.22244">
        <ele>699.59997558594</ele>
        <time>2014-07-20T09:34:38Z</time>
      </trkpt>
      <trkpt lat="44.11011" lon="3.22249">
        <ele>700.59997558594</ele>
        <time>2014-07-20T09:34:40Z</time>
      </trkpt>
      <trkpt lat="44.11011" lon="3.22256">
        <ele>701</ele>
        <time>2014-07-20T09:34:43Z</time>
      </trkpt>
      <trkpt lat="44.1101" lon="3.22265">
        <ele>701.40002441406</ele>
        <time>2014-07-20T09:34:47Z</time>
      </trkpt>
      <trkpt lat="44.11009" lon="3.22269">
        <ele>702.19995117188</ele>
        <time>2014-07-20T09:34:49Z</time>
      </trkpt>
      <trkpt lat="44.11009" lon="3.22273">
        <ele>703</ele>
        <time>2014-07-20T09:34:51Z</time>
      </trkpt>
      <trkpt lat="44.11006" lon="3.22291">
        <ele>703</ele>
        <time>2014-07-20T09:34:59Z</time>
      </trkpt>
      <trkpt lat="44.11005" lon="3.22296">
        <ele>704.19995117188</ele>
        <time>2014-07-20T09:35:01Z</time>
      </trkpt>
      <trkpt lat="44.11005" lon="3.22301">
        <ele>705</ele>
        <time>2014-07-20T09:35:03Z</time>
      </trkpt>
      <trkpt lat="44.11004" lon="3.22305">
        <ele>705</ele>
        <time>2014-07-20T09:35:05Z</time>
      </trkpt>
      <trkpt lat="44.11003" lon="3.2232">
        <ele>705.40002441406</ele>
        <time>2014-07-20T09:35:12Z</time>
      </trkpt>
      <trkpt lat="44.11002" lon="3.22324">
        <ele>706.19995117188</ele>
        <time>2014-07-20T09:35:14Z</time>
      </trkpt>
      <trkpt lat="44.11002" lon="3.22328">
        <ele>707</ele>
        <time>2014-07-20T09:35:16Z</time>
      </trkpt>
      <trkpt lat="44.11002" lon="3.22334">
        <ele>707</ele>
        <time>2014-07-20T09:35:19Z</time>
      </trkpt>
      <trkpt lat="44.11001" lon="3.22342">
        <ele>707.40002441406</ele>
        <time>2014-07-20T09:35:23Z</time>
      </trkpt>
      <trkpt lat="44.11001" lon="3.22346">
        <ele>708.80004882812</ele>
        <time>2014-07-20T09:35:25Z</time>
      </trkpt>
      <trkpt lat="44.10996" lon="3.22367">
        <ele>709.19995117188</ele>
        <time>2014-07-20T09:35:35Z</time>
      </trkpt>
      <trkpt lat="44.10996" lon="3.22371">
        <ele>710</ele>
        <time>2014-07-20T09:35:37Z</time>
      </trkpt>
      <trkpt lat="44.10995" lon="3.22375">
        <ele>710.80004882812</ele>
        <time>2014-07-20T09:35:39Z</time>
      </trkpt>
      <trkpt lat="44.10995" lon="3.22382">
        <ele>711.19995117188</ele>
        <time>2014-07-20T09:35:42Z</time>
      </trkpt>
      <trkpt lat="44.10994" lon="3.22393">
        <ele>711.59997558594</ele>
        <time>2014-07-20T09:35:47Z</time>
      </trkpt>
      <trkpt lat="44.10994" lon="3.22398">
        <ele>712.40002441406</ele>
        <time>2014-07-20T09:35:49Z</time>
      </trkpt>
      <trkpt lat="44.10991" lon="3.22415">
        <ele>713.19995117188</ele>
        <time>2014-07-20T09:35:56Z</time>
      </trkpt>
      <trkpt lat="44.10991" lon="3.22419">
        <ele>714</ele>
        <time>2014-07-20T09:35:58Z</time>
      </trkpt>
      <trkpt lat="44.1099" lon="3.22424">
        <ele>714.80004882812</ele>
        <time>2014-07-20T09:36:00Z</time>
      </trkpt>
      <trkpt lat="44.1099" lon="3.22433">
        <ele>715.19995117188</ele>
        <time>2014-07-20T09:36:04Z</time>
      </trkpt>
      <trkpt lat="44.10988" lon="3.22444">
        <ele>715.59997558594</ele>
        <time>2014-07-20T09:36:09Z</time>
      </trkpt>
      <trkpt lat="44.10988" lon="3.22449">
        <ele>716.59997558594</ele>
        <time>2014-07-20T09:36:11Z</time>
      </trkpt>
      <trkpt lat="44.10988" lon="3.22453">
        <ele>717.40002441406</ele>
        <time>2014-07-20T09:36:13Z</time>
      </trkpt>
      <trkpt lat="44.10987" lon="3.22464">
        <ele>717.40002441406</ele>
        <time>2014-07-20T09:36:18Z</time>
      </trkpt>
      <trkpt lat="44.10987" lon="3.22469">
        <ele>717.80004882812</ele>
        <time>2014-07-20T09:36:20Z</time>
      </trkpt>
      <trkpt lat="44.10986" lon="3.22474">
        <ele>718.80004882812</ele>
        <time>2014-07-20T09:36:22Z</time>
      </trkpt>
      <trkpt lat="44.10986" lon="3.22479">
        <ele>719.59997558594</ele>
        <time>2014-07-20T09:36:24Z</time>
      </trkpt>
      <trkpt lat="44.10985" lon="3.22495">
        <ele>720</ele>
        <time>2014-07-20T09:36:31Z</time>
      </trkpt>
      <trkpt lat="44.10985" lon="3.22499">
        <ele>720.80004882812</ele>
        <time>2014-07-20T09:36:33Z</time>
      </trkpt>
      <trkpt lat="44.10985" lon="3.22504">
        <ele>721.80004882812</ele>
        <time>2014-07-20T09:36:35Z</time>
      </trkpt>
      <trkpt lat="44.10985" lon="3.2251">
        <ele>721.80004882812</ele>
        <time>2014-07-20T09:36:39Z</time>
      </trkpt>
      <trkpt lat="44.10984" lon="3.22516">
        <ele>723</ele>
        <time>2014-07-20T09:36:42Z</time>
      </trkpt>
      <trkpt lat="44.10984" lon="3.22521">
        <ele>724</ele>
        <time>2014-07-20T09:36:44Z</time>
      </trkpt>
      <trkpt lat="44.10984" lon="3.22529">
        <ele>724.40002441406</ele>
        <time>2014-07-20T09:36:48Z</time>
      </trkpt>
      <trkpt lat="44.10985" lon="3.22533">
        <ele>725.19995117188</ele>
        <time>2014-07-20T09:36:50Z</time>
      </trkpt>
      <trkpt lat="44.10986" lon="3.22537">
        <ele>726</ele>
        <time>2014-07-20T09:36:52Z</time>
      </trkpt>
      <trkpt lat="44.10989" lon="3.22539">
        <ele>726</ele>
        <time>2014-07-20T09:36:54Z</time>
      </trkpt>
      <trkpt lat="44.10992" lon="3.22538">
        <ele>725.19995117188</ele>
        <time>2014-07-20T09:37:19Z</time>
      </trkpt>
      <trkpt lat="44.11001" lon="3.22531">
        <ele>724.80004882812</ele>
        <time>2014-07-20T09:37:24Z</time>
      </trkpt>
      <trkpt lat="44.11004" lon="3.22528">
        <ele>724.80004882812</ele>
        <time>2014-07-20T09:37:26Z</time>
      </trkpt>
      <trkpt lat="44.11016" lon="3.22524">
        <ele>724.80004882812</ele>
        <time>2014-07-20T09:37:32Z</time>
      </trkpt>
      <trkpt lat="44.11022" lon="3.22525">
        <ele>725.40002441406</ele>
        <time>2014-07-20T09:37:35Z</time>
      </trkpt>
      <trkpt lat="44.11025" lon="3.22528">
        <ele>727</ele>
        <time>2014-07-20T09:37:37Z</time>
      </trkpt>
      <trkpt lat="44.1103" lon="3.22529">
        <ele>728.40002441406</ele>
        <time>2014-07-20T09:37:39Z</time>
      </trkpt>
      <trkpt lat="44.11046" lon="3.22529">
        <ele>728.40002441406</ele>
        <time>2014-07-20T09:37:46Z</time>
      </trkpt>
      <trkpt lat="44.11059" lon="3.22518">
        <ele>728.40002441406</ele>
        <time>2014-07-20T09:37:53Z</time>
      </trkpt>
      <trkpt lat="44.11062" lon="3.22514">
        <ele>729.40002441406</ele>
        <time>2014-07-20T09:37:55Z</time>
      </trkpt>
      <trkpt lat="44.11065" lon="3.2251">
        <ele>730.19995117188</ele>
        <time>2014-07-20T09:37:57Z</time>
      </trkpt>
      <trkpt lat="44.11069" lon="3.22503">
        <ele>730.80004882812</ele>
        <time>2014-07-20T09:38:00Z</time>
      </trkpt>
      <trkpt lat="44.11076" lon="3.22489">
        <ele>731.19995117188</ele>
        <time>2014-07-20T09:38:06Z</time>
      </trkpt>
      <trkpt lat="44.11079" lon="3.22485">
        <ele>732</ele>
        <time>2014-07-20T09:38:08Z</time>
      </trkpt>
      <trkpt lat="44.11082" lon="3.2248">
        <ele>732.80004882812</ele>
        <time>2014-07-20T09:38:10Z</time>
      </trkpt>
      <trkpt lat="44.11086" lon="3.22477">
        <ele>732.80004882812</ele>
        <time>2014-07-20T09:38:12Z</time>
      </trkpt>
      <trkpt lat="44.11095" lon="3.22471">
        <ele>733.19995117188</ele>
        <time>2014-07-20T09:38:17Z</time>
      </trkpt>
      <trkpt lat="44.11099" lon="3.22471">
        <ele>734.40002441406</ele>
        <time>2014-07-20T09:38:19Z</time>
      </trkpt>
      <trkpt lat="44.11118" lon="3.22475">
        <ele>734.80004882812</ele>
        <time>2014-07-20T09:38:27Z</time>
      </trkpt>
      <trkpt lat="44.11135" lon="3.22475">
        <ele>734.80004882812</ele>
        <time>2014-07-20T09:38:33Z</time>
      </trkpt>
      <trkpt lat="44.11149" lon="3.2248">
        <ele>734.80004882812</ele>
        <time>2014-07-20T09:38:38Z</time>
      </trkpt>
      <trkpt lat="44.11166" lon="3.22486">
        <ele>734.80004882812</ele>
        <time>2014-07-20T09:38:45Z</time>
      </trkpt>
      <trkpt lat="44.11176" lon="3.22499">
        <ele>734.80004882812</ele>
        <time>2014-07-20T09:38:51Z</time>
      </trkpt>
      <trkpt lat="44.11182" lon="3.2251">
        <ele>734.80004882812</ele>
        <time>2014-07-20T09:38:56Z</time>
      </trkpt>
      <trkpt lat="44.11183" lon="3.22509">
        <ele>736.59997558594</ele>
        <time>2014-07-20T09:44:12Z</time>
      </trkpt>
      <trkpt lat="44.11184" lon="3.22512">
        <ele>736.59997558594</ele>
        <time>2014-07-20T09:44:46Z</time>
      </trkpt>
      <trkpt lat="44.11194" lon="3.22524">
        <ele>736.59997558594</ele>
        <time>2014-07-20T09:44:52Z</time>
      </trkpt>
      <trkpt lat="44.11208" lon="3.22539">
        <ele>735.80004882812</ele>
        <time>2014-07-20T09:44:58Z</time>
      </trkpt>
      <trkpt lat="44.1121" lon="3.22542">
        <ele>735.19995117188</ele>
        <time>2014-07-20T09:44:59Z</time>
      </trkpt>
      <trkpt lat="44.11212" lon="3.22544">
        <ele>734.59997558594</ele>
        <time>2014-07-20T09:45:00Z</time>
      </trkpt>
      <trkpt lat="44.11215" lon="3.22547">
        <ele>734</ele>
        <time>2014-07-20T09:45:01Z</time>
      </trkpt>
      <trkpt lat="44.11217" lon="3.22551">
        <ele>733.40002441406</ele>
        <time>2014-07-20T09:45:02Z</time>
      </trkpt>
      <trkpt lat="44.11221" lon="3.22561">
        <ele>733.40002441406</ele>
        <time>2014-07-20T09:45:05Z</time>
      </trkpt>
      <trkpt lat="44.11228" lon="3.22584">
        <ele>733.40002441406</ele>
        <time>2014-07-20T09:45:11Z</time>
      </trkpt>
      <trkpt lat="44.11239" lon="3.22607">
        <ele>733.40002441406</ele>
        <time>2014-07-20T09:45:17Z</time>
      </trkpt>
      <trkpt lat="44.11244" lon="3.22621">
        <ele>732.59997558594</ele>
        <time>2014-07-20T09:45:20Z</time>
      </trkpt>
      <trkpt lat="44.11245" lon="3.22625">
        <ele>732.19995117188</ele>
        <time>2014-07-20T09:45:21Z</time>
      </trkpt>
      <trkpt lat="44.11247" lon="3.22629">
        <ele>731.80004882812</ele>
        <time>2014-07-20T09:45:22Z</time>
      </trkpt>
      <trkpt lat="44.11249" lon="3.22634">
        <ele>731.40002441406</ele>
        <time>2014-07-20T09:45:23Z</time>
      </trkpt>
      <trkpt lat="44.11259" lon="3.22652">
        <ele>731.40002441406</ele>
        <time>2014-07-20T09:45:29Z</time>
      </trkpt>
      <trkpt lat="44.11263" lon="3.22657">
        <ele>731</ele>
        <time>2014-07-20T09:45:34Z</time>
      </trkpt>
      <trkpt lat="44.11266" lon="3.22658">
        <ele>729.80004882812</ele>
        <time>2014-07-20T09:45:37Z</time>
      </trkpt>
      <trkpt lat="44.11269" lon="3.22658">
        <ele>729.40002441406</ele>
        <time>2014-07-20T09:45:39Z</time>
      </trkpt>
      <trkpt lat="44.1127" lon="3.22658">
        <ele>729.40002441406</ele>
        <time>2014-07-20T09:50:23Z</time>
      </trkpt>
      <trkpt lat="44.11276" lon="3.22654">
        <ele>729.59997558594</ele>
        <time>2014-07-20T09:51:02Z</time>
      </trkpt>
      <trkpt lat="44.1128" lon="3.22652">
        <ele>730</ele>
        <time>2014-07-20T09:51:06Z</time>
      </trkpt>
      <trkpt lat="44.11283" lon="3.22654">
        <ele>732</ele>
        <time>2014-07-20T09:51:13Z</time>
      </trkpt>
      <trkpt lat="44.11285" lon="3.22659">
        <ele>732</ele>
        <time>2014-07-20T09:51:16Z</time>
      </trkpt>
      <trkpt lat="44.11289" lon="3.22667">
        <ele>732</ele>
        <time>2014-07-20T09:51:21Z</time>
      </trkpt>
      <trkpt lat="44.11292" lon="3.22674">
        <ele>732</ele>
        <time>2014-07-20T09:51:26Z</time>
      </trkpt>
      <trkpt lat="44.11296" lon="3.22682">
        <ele>732</ele>
        <time>2014-07-20T09:54:17Z</time>
      </trkpt>
      <trkpt lat="44.11297" lon="3.22687">
        <ele>732</ele>
        <time>2014-07-20T09:54:28Z</time>
      </trkpt>
      <trkpt lat="44.11297" lon="3.22692">
        <ele>732</ele>
        <time>2014-07-20T09:54:34Z</time>
      </trkpt>
      <trkpt lat="44.11299" lon="3.227">
        <ele>732</ele>
        <time>2014-07-20T09:54:40Z</time>
      </trkpt>
      <trkpt lat="44.11303" lon="3.22712">
        <ele>732</ele>
        <time>2014-07-20T09:54:45Z</time>
      </trkpt>
      <trkpt lat="44.11303" lon="3.22716">
        <ele>732.40002441406</ele>
        <time>2014-07-20T09:54:49Z</time>
      </trkpt>
      <trkpt lat="44.11304" lon="3.22722">
        <ele>734</ele>
        <time>2014-07-20T09:55:34Z</time>
      </trkpt>
      <trkpt lat="44.11305" lon="3.22733">
        <ele>734</ele>
        <time>2014-07-20T09:55:39Z</time>
      </trkpt>
      <trkpt lat="44.11307" lon="3.22744">
        <ele>734</ele>
        <time>2014-07-20T09:55:47Z</time>
      </trkpt>
      <trkpt lat="44.11309" lon="3.22748">
        <ele>736</ele>
        <time>2014-07-20T09:55:54Z</time>
      </trkpt>
      <trkpt lat="44.11311" lon="3.22749">
        <ele>736</ele>
        <time>2014-07-20T09:56:10Z</time>
      </trkpt>
      <trkpt lat="44.11312" lon="3.22754">
        <ele>734</ele>
        <time>2014-07-20T09:57:13Z</time>
      </trkpt>
      <trkpt lat="44.11313" lon="3.2276">
        <ele>734</ele>
        <time>2014-07-20T09:57:19Z</time>
      </trkpt>
      <trkpt lat="44.11314" lon="3.22766">
        <ele>734</ele>
        <time>2014-07-20T09:57:50Z</time>
      </trkpt>
      <trkpt lat="44.11316" lon="3.22777">
        <ele>734</ele>
        <time>2014-07-20T09:58:01Z</time>
      </trkpt>
      <trkpt lat="44.11319" lon="3.22791">
        <ele>734</ele>
        <time>2014-07-20T09:58:08Z</time>
      </trkpt>
      <trkpt lat="44.11321" lon="3.228">
        <ele>734</ele>
        <time>2014-07-20T09:58:11Z</time>
      </trkpt>
      <trkpt lat="44.11323" lon="3.22807">
        <ele>733.40002441406</ele>
        <time>2014-07-20T09:58:13Z</time>
      </trkpt>
      <trkpt lat="44.11325" lon="3.22811">
        <ele>733</ele>
        <time>2014-07-20T09:58:14Z</time>
      </trkpt>
      <trkpt lat="44.11326" lon="3.22814">
        <ele>732.59997558594</ele>
        <time>2014-07-20T09:58:15Z</time>
      </trkpt>
      <trkpt lat="44.11329" lon="3.2282">
        <ele>731.80004882812</ele>
        <time>2014-07-20T09:58:17Z</time>
      </trkpt>
      <trkpt lat="44.11333" lon="3.22829">
        <ele>731.80004882812</ele>
        <time>2014-07-20T09:58:20Z</time>
      </trkpt>
      <trkpt lat="44.11342" lon="3.22856">
        <ele>731.40002441406</ele>
        <time>2014-07-20T09:58:27Z</time>
      </trkpt>
      <trkpt lat="44.11344" lon="3.22859">
        <ele>730.80004882812</ele>
        <time>2014-07-20T09:58:28Z</time>
      </trkpt>
      <trkpt lat="44.11346" lon="3.22862">
        <ele>730.40002441406</ele>
        <time>2014-07-20T09:58:29Z</time>
      </trkpt>
      <trkpt lat="44.11349" lon="3.22868">
        <ele>729.59997558594</ele>
        <time>2014-07-20T09:58:31Z</time>
      </trkpt>
      <trkpt lat="44.11352" lon="3.22873">
        <ele>729.59997558594</ele>
        <time>2014-07-20T09:58:33Z</time>
      </trkpt>
      <trkpt lat="44.11356" lon="3.22883">
        <ele>729.19995117188</ele>
        <time>2014-07-20T09:58:38Z</time>
      </trkpt>
      <trkpt lat="44.11357" lon="3.22884">
        <ele>728</ele>
        <time>2014-07-20T10:02:20Z</time>
      </trkpt>
      <trkpt lat="44.11364" lon="3.22896">
        <ele>651.80004882812</ele>
        <time>2014-02-14T14:09:48Z</time>
      </trkpt>
      <trkpt lat="44.11368" lon="3.229">
        <ele>651.80004882812</ele>
        <time>2014-02-14T14:09:54Z</time>
      </trkpt>
      <trkpt lat="44.11371" lon="3.22901">
        <ele>651.80004882812</ele>
        <time>2014-02-14T14:09:57Z</time>
      </trkpt>
      <trkpt lat="44.11375" lon="3.22905">
        <ele>651.80004882812</ele>
        <time>2014-02-14T14:10:02Z</time>
      </trkpt>
      <trkpt lat="44.11379" lon="3.22906">
        <ele>651.40002441406</ele>
        <time>2014-02-14T14:10:05Z</time>
      </trkpt>
      <trkpt lat="44.11382" lon="3.22908">
        <ele>649.80004882812</ele>
        <time>2014-02-14T14:10:14Z</time>
      </trkpt>
      <trkpt lat="44.1139" lon="3.22907">
        <ele>649.80004882812</ele>
        <time>2014-02-14T14:10:20Z</time>
      </trkpt>
      <trkpt lat="44.11397" lon="3.22907">
        <ele>649.80004882812</ele>
        <time>2014-02-14T14:10:27Z</time>
      </trkpt>
      <trkpt lat="44.114" lon="3.22907">
        <ele>647</ele>
        <time>2014-02-14T14:10:32Z</time>
      </trkpt>
      <trkpt lat="44.11404" lon="3.22907">
        <ele>647.80004882812</ele>
        <time>2014-02-14T14:10:35Z</time>
      </trkpt>
      <trkpt lat="44.11409" lon="3.22905">
        <ele>648</ele>
        <time>2014-02-14T14:10:44Z</time>
      </trkpt>
      <trkpt lat="44.11419" lon="3.22905">
        <ele>645.40002441406</ele>
        <time>2014-02-14T14:10:58Z</time>
      </trkpt>
      <trkpt lat="44.11424" lon="3.22907">
        <ele>643.19995117188</ele>
        <time>2014-02-14T14:11:10Z</time>
      </trkpt>
      <trkpt lat="44.1143" lon="3.22908">
        <ele>641.59997558594</ele>
        <time>2014-02-14T14:11:20Z</time>
      </trkpt>
      <trkpt lat="44.11437" lon="3.22909">
        <ele>641.19995117188</ele>
        <time>2014-02-14T14:11:28Z</time>
      </trkpt>
      <trkpt lat="44.1144" lon="3.22909">
        <ele>639.40002441406</ele>
        <time>2014-02-14T14:11:35Z</time>
      </trkpt>
      <trkpt lat="44.11443" lon="3.22911">
        <ele>637.40002441406</ele>
        <time>2014-02-14T14:11:43Z</time>
      </trkpt>
      <trkpt lat="44.11448" lon="3.22912">
        <ele>637.40002441406</ele>
        <time>2014-02-14T14:11:50Z</time>
      </trkpt>
      <trkpt lat="44.11451" lon="3.22912">
        <ele>636.59997558594</ele>
        <time>2014-02-14T14:12:04Z</time>
      </trkpt>
      <trkpt lat="44.11455" lon="3.22913">
        <ele>635.19995117188</ele>
        <time>2014-02-14T14:12:14Z</time>
      </trkpt>
      <trkpt lat="44.11463" lon="3.22915">
        <ele>632.80004882812</ele>
        <time>2014-02-14T14:12:35Z</time>
      </trkpt>
      <trkpt lat="44.11471" lon="3.22915">
        <ele>630.80004882812</ele>
        <time>2014-02-14T14:12:59Z</time>
      </trkpt>
      <trkpt lat="44.11476" lon="3.22913">
        <ele>629.80004882812</ele>
        <time>2014-02-14T14:13:03Z</time>
      </trkpt>
      <trkpt lat="44.11479" lon="3.22911">
        <ele>629.40002441406</ele>
        <time>2014-02-14T14:13:04Z</time>
      </trkpt>
      <trkpt lat="44.11482" lon="3.2291">
        <ele>628.59997558594</ele>
        <time>2014-02-14T14:13:06Z</time>
      </trkpt>
      <trkpt lat="44.11484" lon="3.22907">
        <ele>628.59997558594</ele>
        <time>2014-02-14T14:13:09Z</time>
      </trkpt>
      <trkpt lat="44.11485" lon="3.22896">
        <ele>628.19995117188</ele>
        <time>2014-02-14T14:13:15Z</time>
      </trkpt>
      <trkpt lat="44.11486" lon="3.22892">
        <ele>626.40002441406</ele>
        <time>2014-02-14T14:13:19Z</time>
      </trkpt>
      <trkpt lat="44.11487" lon="3.22888">
        <ele>626.40002441406</ele>
        <time>2014-02-14T14:13:21Z</time>
      </trkpt>
      <trkpt lat="44.1149" lon="3.22879">
        <ele>626.40002441406</ele>
        <time>2014-02-14T14:13:27Z</time>
      </trkpt>
      <trkpt lat="44.11494" lon="3.22876">
        <ele>626.40002441406</ele>
        <time>2014-02-14T14:13:35Z</time>
      </trkpt>
      <trkpt lat="44.11497" lon="3.22879">
        <ele>624.19995117188</ele>
        <time>2014-02-14T14:13:39Z</time>
      </trkpt>
      <trkpt lat="44.11499" lon="3.22881">
        <ele>623.80004882812</ele>
        <time>2014-02-14T14:13:42Z</time>
      </trkpt>
      <trkpt lat="44.11502" lon="3.22884">
        <ele>622</ele>
        <time>2014-02-14T14:13:46Z</time>
      </trkpt>
      <trkpt lat="44.11505" lon="3.22884">
        <ele>621.19995117188</ele>
        <time>2014-02-14T14:13:50Z</time>
      </trkpt>
      <trkpt lat="44.11507" lon="3.22881">
        <ele>619.80004882812</ele>
        <time>2014-02-14T14:13:53Z</time>
      </trkpt>
      <trkpt lat="44.11511" lon="3.22878">
        <ele>618.19995117188</ele>
        <time>2014-02-14T14:14:01Z</time>
      </trkpt>
      <trkpt lat="44.11516" lon="3.22877">
        <ele>617.19995117188</ele>
        <time>2014-02-14T14:14:04Z</time>
      </trkpt>
      <trkpt lat="44.11519" lon="3.22877">
        <ele>616.40002441406</ele>
        <time>2014-02-14T14:14:06Z</time>
      </trkpt>
      <trkpt lat="44.11524" lon="3.22878">
        <ele>615.40002441406</ele>
        <time>2014-02-14T14:14:15Z</time>
      </trkpt>
      <trkpt lat="44.11527" lon="3.22875">
        <ele>613.59997558594</ele>
        <time>2014-02-14T14:14:19Z</time>
      </trkpt>
      <trkpt lat="44.1153" lon="3.22872">
        <ele>612.59997558594</ele>
        <time>2014-02-14T14:14:24Z</time>
      </trkpt>
      <trkpt lat="44.11533" lon="3.2287">
        <ele>610.40002441406</ele>
        <time>2014-02-14T14:14:29Z</time>
      </trkpt>
      <trkpt lat="44.11535" lon="3.22869">
        <ele>608</ele>
        <time>2014-02-14T14:14:40Z</time>
      </trkpt>
      <trkpt lat="44.11538" lon="3.22872">
        <ele>606.59997558594</ele>
        <time>2014-02-14T14:14:48Z</time>
      </trkpt>
      <trkpt lat="44.11546" lon="3.22873">
        <ele>604.59997558594</ele>
        <time>2014-02-14T14:15:00Z</time>
      </trkpt>
      <trkpt lat="44.11548" lon="3.22877">
        <ele>603.80004882812</ele>
        <time>2014-02-14T14:15:05Z</time>
      </trkpt>
      <trkpt lat="44.11549" lon="3.2288">
        <ele>602.40002441406</ele>
        <time>2014-02-14T14:15:08Z</time>
      </trkpt>
      <trkpt lat="44.11552" lon="3.22878">
        <ele>602</ele>
        <time>2014-02-14T14:15:18Z</time>
      </trkpt>
      <trkpt lat="44.11556" lon="3.22879">
        <ele>600.40002441406</ele>
        <time>2014-02-14T14:15:39Z</time>
      </trkpt>
      <trkpt lat="44.11558" lon="3.22882">
        <ele>598.40002441406</ele>
        <time>2014-02-14T14:15:56Z</time>
      </trkpt>
      <trkpt lat="44.11562" lon="3.22885">
        <ele>598</ele>
        <time>2014-02-14T14:16:00Z</time>
      </trkpt>
      <trkpt lat="44.11564" lon="3.22882">
        <ele>596.19995117188</ele>
        <time>2014-02-14T14:16:04Z</time>
      </trkpt>
      <trkpt lat="44.11566" lon="3.2288">
        <ele>595.40002441406</ele>
        <time>2014-02-14T14:16:09Z</time>
      </trkpt>
      <trkpt lat="44.11569" lon="3.22875">
        <ele>594</ele>
        <time>2014-02-14T14:16:20Z</time>
      </trkpt>
      <trkpt lat="44.11571" lon="3.2288">
        <ele>591.59997558594</ele>
        <time>2014-02-14T14:16:31Z</time>
      </trkpt>
      <trkpt lat="44.11573" lon="3.22884">
        <ele>590</ele>
        <time>2014-02-14T14:16:34Z</time>
      </trkpt>
      <trkpt lat="44.11576" lon="3.22888">
        <ele>589.19995117188</ele>
        <time>2014-02-14T14:16:38Z</time>
      </trkpt>
      <trkpt lat="44.1158" lon="3.22889">
        <ele>587.80004882812</ele>
        <time>2014-02-14T14:16:41Z</time>
      </trkpt>
      <trkpt lat="44.11584" lon="3.2289">
        <ele>587.40002441406</ele>
        <time>2014-02-14T14:16:45Z</time>
      </trkpt>
      <trkpt lat="44.11588" lon="3.22891">
        <ele>586.19995117188</ele>
        <time>2014-02-14T14:16:48Z</time>
      </trkpt>
      <trkpt lat="44.11591" lon="3.22893">
        <ele>585.40002441406</ele>
        <time>2014-02-14T14:16:51Z</time>
      </trkpt>
      <trkpt lat="44.11595" lon="3.22895">
        <ele>584.80004882812</ele>
        <time>2014-02-14T14:16:55Z</time>
      </trkpt>
      <trkpt lat="44.11598" lon="3.22896">
        <ele>583.19995117188</ele>
        <time>2014-02-14T14:16:58Z</time>
      </trkpt>
      <trkpt lat="44.11604" lon="3.229">
        <ele>582.59997558594</ele>
        <time>2014-02-14T14:17:04Z</time>
      </trkpt>
      <trkpt lat="44.11607" lon="3.22901">
        <ele>580</ele>
        <time>2014-02-14T14:17:13Z</time>
      </trkpt>
      <trkpt lat="44.1161" lon="3.22901">
        <ele>578.80004882812</ele>
        <time>2014-02-14T14:17:16Z</time>
      </trkpt>
      <trkpt lat="44.11613" lon="3.22903">
        <ele>578.80004882812</ele>
        <time>2014-02-14T14:17:24Z</time>
      </trkpt>
      <trkpt lat="44.11616" lon="3.22906">
        <ele>577.40002441406</ele>
        <time>2014-02-14T14:17:29Z</time>
      </trkpt>
      <trkpt lat="44.11618" lon="3.22908">
        <ele>577</ele>
        <time>2014-02-14T14:17:30Z</time>
      </trkpt>
      <trkpt lat="44.11627" lon="3.22914">
        <ele>576.19995117188</ele>
        <time>2014-02-14T14:17:37Z</time>
      </trkpt>
      <trkpt lat="44.11629" lon="3.22916">
        <ele>575</ele>
        <time>2014-02-14T14:17:40Z</time>
      </trkpt>
      <trkpt lat="44.11632" lon="3.22913">
        <ele>574.59997558594</ele>
        <time>2014-02-14T14:17:44Z</time>
      </trkpt>
      <trkpt lat="44.11633" lon="3.22909">
        <ele>573.40002441406</ele>
        <time>2014-02-14T14:17:47Z</time>
      </trkpt>
      <trkpt lat="44.11632" lon="3.22905">
        <ele>572.59997558594</ele>
        <time>2014-02-14T14:17:51Z</time>
      </trkpt>
      <trkpt lat="44.1163" lon="3.22901">
        <ele>572.19995117188</ele>
        <time>2014-02-14T14:17:56Z</time>
      </trkpt>
      <trkpt lat="44.11627" lon="3.22898">
        <ele>570.80004882812</ele>
        <time>2014-02-14T14:17:59Z</time>
      </trkpt>
      <trkpt lat="44.11623" lon="3.22894">
        <ele>570.40002441406</ele>
        <time>2014-02-14T14:18:04Z</time>
      </trkpt>
      <trkpt lat="44.11622" lon="3.22889">
        <ele>569.19995117188</ele>
        <time>2014-02-14T14:18:10Z</time>
      </trkpt>
      <trkpt lat="44.11621" lon="3.22879">
        <ele>568.19995117188</ele>
        <time>2014-02-14T14:18:17Z</time>
      </trkpt>
      <trkpt lat="44.11622" lon="3.22874">
        <ele>566.19995117188</ele>
        <time>2014-02-14T14:18:25Z</time>
      </trkpt>
      <trkpt lat="44.11624" lon="3.2287">
        <ele>564.80004882812</ele>
        <time>2014-02-14T14:18:28Z</time>
      </trkpt>
      <trkpt lat="44.11626" lon="3.22868">
        <ele>564</ele>
        <time>2014-02-14T14:18:30Z</time>
      </trkpt>
      <trkpt lat="44.11628" lon="3.22864">
        <ele>564</ele>
        <time>2014-02-14T14:18:33Z</time>
      </trkpt>
      <trkpt lat="44.1163" lon="3.22859">
        <ele>562.19995117188</ele>
        <time>2014-02-14T14:18:36Z</time>
      </trkpt>
      <trkpt lat="44.1164" lon="3.22848">
        <ele>561.40002441406</ele>
        <time>2014-02-14T14:18:48Z</time>
      </trkpt>
      <trkpt lat="44.1164" lon="3.22844">
        <ele>559.59997558594</ele>
        <time>2014-02-14T14:18:52Z</time>
      </trkpt>
      <trkpt lat="44.11642" lon="3.22839">
        <ele>559.59997558594</ele>
        <time>2014-02-14T14:18:56Z</time>
      </trkpt>
      <trkpt lat="44.11644" lon="3.22835">
        <ele>559.19995117188</ele>
        <time>2014-02-14T14:18:59Z</time>
      </trkpt>
      <trkpt lat="44.11646" lon="3.22831">
        <ele>557.59997558594</ele>
        <time>2014-02-14T14:19:02Z</time>
      </trkpt>
      <trkpt lat="44.11651" lon="3.22826">
        <ele>557.19995117188</ele>
        <time>2014-02-14T14:19:09Z</time>
      </trkpt>
      <trkpt lat="44.11654" lon="3.22823">
        <ele>555.80004882812</ele>
        <time>2014-02-14T14:19:12Z</time>
      </trkpt>
      <trkpt lat="44.11658" lon="3.22819">
        <ele>555.40002441406</ele>
        <time>2014-02-14T14:19:19Z</time>
      </trkpt>
      <trkpt lat="44.1166" lon="3.22815">
        <ele>553.19995117188</ele>
        <time>2014-02-14T14:19:27Z</time>
      </trkpt>
      <trkpt lat="44.11665" lon="3.22808">
        <ele>553.19995117188</ele>
        <time>2014-02-14T14:19:34Z</time>
      </trkpt>
      <trkpt lat="44.11668" lon="3.22805">
        <ele>552.80004882812</ele>
        <time>2014-02-14T14:19:38Z</time>
      </trkpt>
      <trkpt lat="44.11677" lon="3.22802">
        <ele>550.19995117188</ele>
        <time>2014-02-14T14:19:49Z</time>
      </trkpt>
      <trkpt lat="44.11681" lon="3.22801">
        <ele>549.40002441406</ele>
        <time>2014-02-14T14:19:51Z</time>
      </trkpt>
      <trkpt lat="44.11685" lon="3.22801">
        <ele>548.59997558594</ele>
        <time>2014-02-14T14:19:56Z</time>
      </trkpt>
      <trkpt lat="44.11688" lon="3.22802">
        <ele>547.40002441406</ele>
        <time>2014-02-14T14:19:59Z</time>
      </trkpt>
      <trkpt lat="44.11692" lon="3.22801">
        <ele>546.80004882812</ele>
        <time>2014-02-14T14:20:02Z</time>
      </trkpt>
      <trkpt lat="44.11695" lon="3.228">
        <ele>546.80004882812</ele>
        <time>2014-02-14T14:20:04Z</time>
      </trkpt>
      <trkpt lat="44.11701" lon="3.22796">
        <ele>546.40002441406</ele>
        <time>2014-02-14T14:20:10Z</time>
      </trkpt>
      <trkpt lat="44.11703" lon="3.22793">
        <ele>544.80004882812</ele>
        <time>2014-02-14T14:20:14Z</time>
      </trkpt>
      <trkpt lat="44.11707" lon="3.22789">
        <ele>544.80004882812</ele>
        <time>2014-02-14T14:20:18Z</time>
      </trkpt>
      <trkpt lat="44.11712" lon="3.22784">
        <ele>544.80004882812</ele>
        <time>2014-02-14T14:20:25Z</time>
      </trkpt>
      <trkpt lat="44.11716" lon="3.22775">
        <ele>544.80004882812</ele>
        <time>2014-02-14T14:20:30Z</time>
      </trkpt>
      <trkpt lat="44.11718" lon="3.2277">
        <ele>544.80004882812</ele>
        <time>2014-02-14T14:20:33Z</time>
      </trkpt>
      <trkpt lat="44.11726" lon="3.22759">
        <ele>544.80004882812</ele>
        <time>2014-02-14T14:20:41Z</time>
      </trkpt>
      <trkpt lat="44.11731" lon="3.22755">
        <ele>544.40002441406</ele>
        <time>2014-02-14T14:20:45Z</time>
      </trkpt>
      <trkpt lat="44.11735" lon="3.22752">
        <ele>543.59997558594</ele>
        <time>2014-02-14T14:20:47Z</time>
      </trkpt>
      <trkpt lat="44.11737" lon="3.22749">
        <ele>542.59997558594</ele>
        <time>2014-02-14T14:20:49Z</time>
      </trkpt>
      <trkpt lat="44.11741" lon="3.22745">
        <ele>542.59997558594</ele>
        <time>2014-02-14T14:20:55Z</time>
      </trkpt>
      <trkpt lat="44.11748" lon="3.22745">
        <ele>542.59997558594</ele>
        <time>2014-02-14T14:21:01Z</time>
      </trkpt>
      <trkpt lat="44.11755" lon="3.22748">
        <ele>541.80004882812</ele>
        <time>2014-02-14T14:21:04Z</time>
      </trkpt>
      <trkpt lat="44.11758" lon="3.22748">
        <ele>540.59997558594</ele>
        <time>2014-02-14T14:21:07Z</time>
      </trkpt>
      <trkpt lat="44.11762" lon="3.22748">
        <ele>540.59997558594</ele>
        <time>2014-02-14T14:21:11Z</time>
      </trkpt>
      <trkpt lat="44.11769" lon="3.22748">
        <ele>540.59997558594</ele>
        <time>2014-02-14T14:21:17Z</time>
      </trkpt>
      <trkpt lat="44.11775" lon="3.22749">
        <ele>540.59997558594</ele>
        <time>2014-02-14T14:21:23Z</time>
      </trkpt>
      <trkpt lat="44.11778" lon="3.22748">
        <ele>539.59997558594</ele>
        <time>2014-02-14T14:21:26Z</time>
      </trkpt>
      <trkpt lat="44.11784" lon="3.22747">
        <ele>538.40002441406</ele>
        <time>2014-02-14T14:21:34Z</time>
      </trkpt>
      <trkpt lat="44.11791" lon="3.22744">
        <ele>538.40002441406</ele>
        <time>2014-02-14T14:21:39Z</time>
      </trkpt>
      <trkpt lat="44.11798" lon="3.22743">
        <ele>538</ele>
        <time>2014-02-14T14:21:44Z</time>
      </trkpt>
      <trkpt lat="44.11802" lon="3.22743">
        <ele>537.19995117188</ele>
        <time>2014-02-14T14:21:46Z</time>
      </trkpt>
      <trkpt lat="44.11806" lon="3.22742">
        <ele>536.40002441406</ele>
        <time>2014-02-14T14:21:48Z</time>
      </trkpt>
      <trkpt lat="44.11809" lon="3.22742">
        <ele>534.59997558594</ele>
        <time>2014-02-14T14:21:56Z</time>
      </trkpt>
      <trkpt lat="44.11814" lon="3.22742">
        <ele>533.80004882812</ele>
        <time>2014-02-14T14:22:00Z</time>
      </trkpt>
      <trkpt lat="44.11818" lon="3.22741">
        <ele>533</ele>
        <time>2014-02-14T14:22:02Z</time>
      </trkpt>
      <trkpt lat="44.11822" lon="3.22739">
        <ele>532.19995117188</ele>
        <time>2014-02-14T14:22:07Z</time>
      </trkpt>
      <trkpt lat="44.11825" lon="3.22738">
        <ele>531.80004882812</ele>
        <time>2014-02-14T14:22:10Z</time>
      </trkpt>
      <trkpt lat="44.1183" lon="3.22735">
        <ele>530</ele>
        <time>2014-02-14T14:23:52Z</time>
      </trkpt>
      <trkpt lat="44.11835" lon="3.22737">
        <ele>530</ele>
        <time>2014-02-14T14:23:58Z</time>
      </trkpt>
      <trkpt lat="44.11838" lon="3.22737">
        <ele>528.40002441406</ele>
        <time>2014-02-14T14:24:02Z</time>
      </trkpt>
      <trkpt lat="44.11841" lon="3.22737">
        <ele>528</ele>
        <time>2014-02-14T14:24:05Z</time>
      </trkpt>
      <trkpt lat="44.11845" lon="3.22736">
        <ele>527.59997558594</ele>
        <time>2014-02-14T14:24:09Z</time>
      </trkpt>
      <trkpt lat="44.11848" lon="3.22736">
        <ele>526.19995117188</ele>
        <time>2014-02-14T14:24:12Z</time>
      </trkpt>
      <trkpt lat="44.11854" lon="3.22734">
        <ele>525.80004882812</ele>
        <time>2014-02-14T14:24:17Z</time>
      </trkpt>
      <trkpt lat="44.11858" lon="3.22732">
        <ele>525.40002441406</ele>
        <time>2014-02-14T14:24:20Z</time>
      </trkpt>
      <trkpt lat="44.11861" lon="3.22731">
        <ele>523.79998779297</ele>
        <time>2014-02-14T14:24:23Z</time>
      </trkpt>
      <trkpt lat="44.11866" lon="3.22728">
        <ele>523.79998779297</ele>
        <time>2014-02-14T14:24:28Z</time>
      </trkpt>
      <trkpt lat="44.1187" lon="3.22728">
        <ele>522.59997558594</ele>
        <time>2014-02-14T14:24:31Z</time>
      </trkpt>
      <trkpt lat="44.11877" lon="3.22726">
        <ele>521.79998779297</ele>
        <time>2014-02-14T14:24:38Z</time>
      </trkpt>
      <trkpt lat="44.11884" lon="3.22725">
        <ele>521.40002441406</ele>
        <time>2014-02-14T14:24:44Z</time>
      </trkpt>
      <trkpt lat="44.11887" lon="3.22724">
        <ele>520.20001220703</ele>
        <time>2014-02-14T14:24:46Z</time>
      </trkpt>
      <trkpt lat="44.11893" lon="3.2272">
        <ele>519.59997558594</ele>
        <time>2014-02-14T14:24:52Z</time>
      </trkpt>
      <trkpt lat="44.119" lon="3.22714">
        <ele>519.59997558594</ele>
        <time>2014-02-14T14:25:00Z</time>
      </trkpt>
      <trkpt lat="44.1191" lon="3.22706">
        <ele>519.59997558594</ele>
        <time>2014-02-14T14:25:11Z</time>
      </trkpt>
      <trkpt lat="44.11918" lon="3.22706">
        <ele>519.20001220703</ele>
        <time>2014-02-14T14:25:19Z</time>
      </trkpt>
      <trkpt lat="44.11921" lon="3.22706">
        <ele>517.59997558594</ele>
        <time>2014-02-14T14:25:23Z</time>
      </trkpt>
      <trkpt lat="44.11926" lon="3.22704">
        <ele>517.59997558594</ele>
        <time>2014-02-14T14:25:30Z</time>
      </trkpt>
      <trkpt lat="44.1193" lon="3.22703">
        <ele>517.59997558594</ele>
        <time>2014-02-14T14:25:36Z</time>
      </trkpt>
      <trkpt lat="44.11934" lon="3.22702">
        <ele>517.20001220703</ele>
        <time>2014-02-14T14:25:38Z</time>
      </trkpt>
      <trkpt lat="44.11936" lon="3.227">
        <ele>516.40002441406</ele>
        <time>2014-02-14T14:25:40Z</time>
      </trkpt>
      <trkpt lat="44.11944" lon="3.22698">
        <ele>515.20001220703</ele>
        <time>2014-02-14T14:25:47Z</time>
      </trkpt>
      <trkpt lat="44.11947" lon="3.22696">
        <ele>513.59997558594</ele>
        <time>2014-02-14T14:25:51Z</time>
      </trkpt>
      <trkpt lat="44.11959" lon="3.22691">
        <ele>513.59997558594</ele>
        <time>2014-02-14T14:26:04Z</time>
      </trkpt>
      <trkpt lat="44.11962" lon="3.2269">
        <ele>512.40002441406</ele>
        <time>2014-02-14T14:26:07Z</time>
      </trkpt>
      <trkpt lat="44.11968" lon="3.22689">
        <ele>511.59997558594</ele>
        <time>2014-02-14T14:26:12Z</time>
      </trkpt>
      <trkpt lat="44.11972" lon="3.2269">
        <ele>510.79998779297</ele>
        <time>2014-02-14T14:26:15Z</time>
      </trkpt>
      <trkpt lat="44.11975" lon="3.2269">
        <ele>510</ele>
        <time>2014-02-14T14:26:17Z</time>
      </trkpt>
      <trkpt lat="44.11977" lon="3.2269">
        <ele>509.40002441406</ele>
        <time>2014-02-14T14:26:19Z</time>
      </trkpt>
      <trkpt lat="44.11982" lon="3.22688">
        <ele>509</ele>
        <time>2014-02-14T14:26:23Z</time>
      </trkpt>
      <trkpt lat="44.11985" lon="3.22688">
        <ele>507.40002441406</ele>
        <time>2014-02-14T14:26:26Z</time>
      </trkpt>
      <trkpt lat="44.11994" lon="3.22688">
        <ele>507</ele>
        <time>2014-02-14T14:26:32Z</time>
      </trkpt>
      <trkpt lat="44.11997" lon="3.22689">
        <ele>505.40002441406</ele>
        <time>2014-02-14T14:26:36Z</time>
      </trkpt>
      <trkpt lat="44.12002" lon="3.2269">
        <ele>505</ele>
        <time>2014-02-14T14:26:39Z</time>
      </trkpt>
      <trkpt lat="44.12005" lon="3.22691">
        <ele>503.59997558594</ele>
        <time>2014-02-14T14:26:42Z</time>
      </trkpt>
      <trkpt lat="44.12007" lon="3.22692">
        <ele>503.20001220703</ele>
        <time>2014-02-14T14:26:46Z</time>
      </trkpt>
      <trkpt lat="44.1201" lon="3.22692">
        <ele>502</ele>
        <time>2014-02-14T14:26:49Z</time>
      </trkpt>
      <trkpt lat="44.12016" lon="3.2269">
        <ele>501.20001220703</ele>
        <time>2014-02-14T14:26:53Z</time>
      </trkpt>
      <trkpt lat="44.12022" lon="3.22688">
        <ele>500.79998779297</ele>
        <time>2014-02-14T14:26:59Z</time>
      </trkpt>
      <trkpt lat="44.12026" lon="3.22689">
        <ele>499</ele>
        <time>2014-02-14T14:27:03Z</time>
      </trkpt>
      <trkpt lat="44.1203" lon="3.22691">
        <ele>498.59997558594</ele>
        <time>2014-02-14T14:27:08Z</time>
      </trkpt>
      <trkpt lat="44.12033" lon="3.22692">
        <ele>497.79998779297</ele>
        <time>2014-02-14T14:27:10Z</time>
      </trkpt>
      <trkpt lat="44.12036" lon="3.22694">
        <ele>497</ele>
        <time>2014-02-14T14:27:12Z</time>
      </trkpt>
      <trkpt lat="44.1204" lon="3.22695">
        <ele>496.20001220703</ele>
        <time>2014-02-14T14:27:15Z</time>
      </trkpt>
      <trkpt lat="44.12043" lon="3.22697">
        <ele>495.40002441406</ele>
        <time>2014-02-14T14:27:17Z</time>
      </trkpt>
      <trkpt lat="44.12049" lon="3.22701">
        <ele>494.59997558594</ele>
        <time>2014-02-14T14:27:22Z</time>
      </trkpt>
      <trkpt lat="44.12054" lon="3.22707">
        <ele>492.40002441406</ele>
        <time>2014-02-14T14:27:30Z</time>
      </trkpt>
      <trkpt lat="44.12056" lon="3.22709">
        <ele>491.59997558594</ele>
        <time>2014-02-14T14:27:32Z</time>
      </trkpt>
      <trkpt lat="44.12059" lon="3.22712">
        <ele>490.79998779297</ele>
        <time>2014-02-14T14:27:34Z</time>
      </trkpt>
      <trkpt lat="44.12062" lon="3.22714">
        <ele>490.79998779297</ele>
        <time>2014-02-14T14:27:38Z</time>
      </trkpt>
      <trkpt lat="44.12066" lon="3.22715">
        <ele>488.59997558594</ele>
        <time>2014-02-14T14:27:42Z</time>
      </trkpt>
      <trkpt lat="44.12069" lon="3.22715">
        <ele>488.59997558594</ele>
        <time>2014-02-14T14:27:45Z</time>
      </trkpt>
      <trkpt lat="44.12074" lon="3.22713">
        <ele>488.59997558594</ele>
        <time>2014-02-14T14:27:50Z</time>
      </trkpt>
      <trkpt lat="44.12075" lon="3.22717">
        <ele>488.20001220703</ele>
        <time>2014-02-14T14:27:56Z</time>
      </trkpt>
      <trkpt lat="44.12077" lon="3.22719">
        <ele>486</ele>
        <time>2014-02-14T14:28:03Z</time>
      </trkpt>
      <trkpt lat="44.12079" lon="3.2272">
        <ele>484.40002441406</ele>
        <time>2014-02-14T14:28:06Z</time>
      </trkpt>
      <trkpt lat="44.12082" lon="3.22722">
        <ele>484</ele>
        <time>2014-02-14T14:28:09Z</time>
      </trkpt>
      <trkpt lat="44.12086" lon="3.22721">
        <ele>482.20001220703</ele>
        <time>2014-02-14T14:28:13Z</time>
      </trkpt>
      <trkpt lat="44.12088" lon="3.22719">
        <ele>481.79998779297</ele>
        <time>2014-02-14T14:28:16Z</time>
      </trkpt>
      <trkpt lat="44.12091" lon="3.22715">
        <ele>480.59997558594</ele>
        <time>2014-02-14T14:28:19Z</time>
      </trkpt>
      <trkpt lat="44.12093" lon="3.22709">
        <ele>480.20001220703</ele>
        <time>2014-02-14T14:28:36Z</time>
      </trkpt>
      <trkpt lat="44.12094" lon="3.2271">
        <ele>478.20001220703</ele>
        <time>2014-02-14T14:28:55Z</time>
      </trkpt>
      <trkpt lat="44.12096" lon="3.22706">
        <ele>478.20001220703</ele>
        <time>2014-02-14T14:29:01Z</time>
      </trkpt>
      <trkpt lat="44.12097" lon="3.22702">
        <ele>477.59997558594</ele>
        <time>2014-02-14T14:29:04Z</time>
      </trkpt>
      <trkpt lat="44.12097" lon="3.22698">
        <ele>476.40002441406</ele>
        <time>2014-02-14T14:29:07Z</time>
      </trkpt>
      <trkpt lat="44.12099" lon="3.22693">
        <ele>475.59997558594</ele>
        <time>2014-02-14T14:29:12Z</time>
      </trkpt>
      <trkpt lat="44.121" lon="3.22689">
        <ele>474.20001220703</ele>
        <time>2014-02-14T14:29:15Z</time>
      </trkpt>
      <trkpt lat="44.12103" lon="3.22685">
        <ele>473.40002441406</ele>
        <time>2014-02-14T14:29:19Z</time>
      </trkpt>
      <trkpt lat="44.12104" lon="3.22683">
        <ele>469.40002441406</ele>
        <time>2014-02-14T14:29:41Z</time>
      </trkpt>
      <trkpt lat="44.12107" lon="3.22678">
        <ele>469.40002441406</ele>
        <time>2014-02-14T14:30:04Z</time>
      </trkpt>
      <trkpt lat="44.12114" lon="3.22668">
        <ele>469.40002441406</ele>
        <time>2014-02-14T14:30:10Z</time>
      </trkpt>
      <trkpt lat="44.12117" lon="3.22654">
        <ele>469.40002441406</ele>
        <time>2014-02-14T14:30:19Z</time>
      </trkpt>
      <trkpt lat="44.12118" lon="3.2265">
        <ele>469</ele>
        <time>2014-02-14T14:30:21Z</time>
      </trkpt>
      <trkpt lat="44.12119" lon="3.22647">
        <ele>468.20001220703</ele>
        <time>2014-02-14T14:30:23Z</time>
      </trkpt>
      <trkpt lat="44.12122" lon="3.22643">
        <ele>467.20001220703</ele>
        <time>2014-02-14T14:30:25Z</time>
      </trkpt>
      <trkpt lat="44.12127" lon="3.22636">
        <ele>466.79998779297</ele>
        <time>2014-02-14T14:30:33Z</time>
      </trkpt>
      <trkpt lat="44.1213" lon="3.22631">
        <ele>465.20001220703</ele>
        <time>2014-02-14T14:30:54Z</time>
      </trkpt>
      <trkpt lat="44.12132" lon="3.22628">
        <ele>464</ele>
        <time>2014-02-14T14:31:04Z</time>
      </trkpt>
      <trkpt lat="44.12134" lon="3.22618">
        <ele>463.20001220703</ele>
        <time>2014-02-14T14:31:13Z</time>
      </trkpt>
      <trkpt lat="44.12141" lon="3.2261">
        <ele>463.20001220703</ele>
        <time>2014-02-14T14:31:19Z</time>
      </trkpt>
      <trkpt lat="44.12143" lon="3.22608">
        <ele>463.20001220703</ele>
        <time>2014-02-14T14:31:26Z</time>
      </trkpt>
      <trkpt lat="44.1215" lon="3.22599">
        <ele>463.20001220703</ele>
        <time>2014-02-14T14:31:32Z</time>
      </trkpt>
      <trkpt lat="44.12153" lon="3.22598">
        <ele>462.40002441406</ele>
        <time>2014-02-14T14:31:34Z</time>
      </trkpt>
      <trkpt lat="44.12156" lon="3.22596">
        <ele>461.20001220703</ele>
        <time>2014-02-14T14:31:39Z</time>
      </trkpt>
      <trkpt lat="44.12163" lon="3.22595">
        <ele>459</ele>
        <time>2014-02-14T14:32:11Z</time>
      </trkpt>
      <trkpt lat="44.12171" lon="3.22594">
        <ele>459</ele>
        <time>2014-02-14T14:32:17Z</time>
      </trkpt>
      <trkpt lat="44.12174" lon="3.2259">
        <ele>459</ele>
        <time>2014-02-14T14:32:22Z</time>
      </trkpt>
      <trkpt lat="44.12179" lon="3.22586">
        <ele>458.40002441406</ele>
        <time>2014-02-14T14:32:29Z</time>
      </trkpt>
      <trkpt lat="44.12181" lon="3.22585">
        <ele>457.20001220703</ele>
        <time>2014-02-14T14:32:32Z</time>
      </trkpt>
      <trkpt lat="44.12184" lon="3.22583">
        <ele>456.59997558594</ele>
        <time>2014-02-14T14:32:37Z</time>
      </trkpt>
      <trkpt lat="44.12186" lon="3.22581">
        <ele>454.20001220703</ele>
        <time>2014-02-14T14:33:10Z</time>
      </trkpt>
      <trkpt lat="44.12196" lon="3.22576">
        <ele>454.20001220703</ele>
        <time>2014-02-14T14:33:18Z</time>
      </trkpt>
      <trkpt lat="44.12202" lon="3.22576">
        <ele>453.79998779297</ele>
        <time>2014-02-14T14:33:21Z</time>
      </trkpt>
      <trkpt lat="44.12206" lon="3.22575">
        <ele>452.79998779297</ele>
        <time>2014-02-14T14:33:23Z</time>
      </trkpt>
      <trkpt lat="44.12213" lon="3.22572">
        <ele>451.79998779297</ele>
        <time>2014-02-14T14:33:29Z</time>
      </trkpt>
      <trkpt lat="44.12216" lon="3.22571">
        <ele>451</ele>
        <time>2014-02-14T14:33:32Z</time>
      </trkpt>
      <trkpt lat="44.12221" lon="3.2257">
        <ele>449.59997558594</ele>
        <time>2014-02-14T14:33:37Z</time>
      </trkpt>
      <trkpt lat="44.12224" lon="3.22569">
        <ele>448.79998779297</ele>
        <time>2014-02-14T14:33:40Z</time>
      </trkpt>
      <trkpt lat="44.12227" lon="3.22569">
        <ele>447.40002441406</ele>
        <time>2014-02-14T14:33:43Z</time>
      </trkpt>
      <trkpt lat="44.1223" lon="3.22568">
        <ele>447.40002441406</ele>
        <time>2014-02-14T14:33:53Z</time>
      </trkpt>
      <trkpt lat="44.1223" lon="3.22574">
        <ele>447</ele>
        <time>2014-02-14T14:33:59Z</time>
      </trkpt>
      <trkpt lat="44.12229" lon="3.22578">
        <ele>445.40002441406</ele>
        <time>2014-02-14T14:34:03Z</time>
      </trkpt>
      <trkpt lat="44.12233" lon="3.22578">
        <ele>445</ele>
        <time>2014-02-14T14:34:13Z</time>
      </trkpt>
      <trkpt lat="44.12235" lon="3.22579">
        <ele>443.20001220703</ele>
        <time>2014-02-14T14:34:20Z</time>
      </trkpt>
      <trkpt lat="44.12238" lon="3.2258">
        <ele>441.20001220703</ele>
        <time>2014-02-14T14:34:26Z</time>
      </trkpt>
      <trkpt lat="44.12241" lon="3.22581">
        <ele>440.79998779297</ele>
        <time>2014-02-14T14:34:30Z</time>
      </trkpt>
      <trkpt lat="44.12244" lon="3.22581">
        <ele>439</ele>
        <time>2014-02-14T14:34:34Z</time>
      </trkpt>
      <trkpt lat="44.12248" lon="3.22581">
        <ele>438.59997558594</ele>
        <time>2014-02-14T14:34:39Z</time>
      </trkpt>
      <trkpt lat="44.12257" lon="3.22582">
        <ele>436.79998779297</ele>
        <time>2014-02-14T14:34:59Z</time>
      </trkpt>
      <trkpt lat="44.12261" lon="3.22586">
        <ele>436.40002441406</ele>
        <time>2014-02-14T14:35:01Z</time>
      </trkpt>
      <trkpt lat="44.12263" lon="3.22588">
        <ele>435.40002441406</ele>
        <time>2014-02-14T14:35:03Z</time>
      </trkpt>
      <trkpt lat="44.12267" lon="3.22592">
        <ele>434.59997558594</ele>
        <time>2014-02-14T14:35:07Z</time>
      </trkpt>
      <trkpt lat="44.12269" lon="3.22595">
        <ele>433.20001220703</ele>
        <time>2014-02-14T14:35:10Z</time>
      </trkpt>
      <trkpt lat="44.12272" lon="3.22597">
        <ele>432.40002441406</ele>
        <time>2014-02-14T14:36:40Z</time>
      </trkpt>
      <trkpt lat="44.12276" lon="3.226">
        <ele>430.40002441406</ele>
        <time>2014-02-14T14:36:56Z</time>
      </trkpt>
      <trkpt lat="44.12282" lon="3.22592">
        <ele>426.20001220703</ele>
        <time>2014-02-14T14:52:22Z</time>
      </trkpt>
      <trkpt lat="44.12281" lon="3.22598">
        <ele>426.20001220703</ele>
        <time>2014-02-14T14:52:29Z</time>
      </trkpt>
      <trkpt lat="44.12279" lon="3.22607">
        <ele>425.79998779297</ele>
        <time>2014-02-14T14:52:34Z</time>
      </trkpt>
      <trkpt lat="44.12278" lon="3.22612">
        <ele>425</ele>
        <time>2014-02-14T14:52:36Z</time>
      </trkpt>
      <trkpt lat="44.12277" lon="3.22616">
        <ele>424.20001220703</ele>
        <time>2014-02-14T14:52:38Z</time>
      </trkpt>
      <trkpt lat="44.12273" lon="3.22621">
        <ele>424.20001220703</ele>
        <time>2014-02-14T14:52:43Z</time>
      </trkpt>
      <trkpt lat="44.1227" lon="3.22626">
        <ele>423.79998779297</ele>
        <time>2014-02-14T14:52:48Z</time>
      </trkpt>
      <trkpt lat="44.12268" lon="3.22628">
        <ele>422.20001220703</ele>
        <time>2014-02-14T14:52:51Z</time>
      </trkpt>
      <trkpt lat="44.12264" lon="3.22635">
        <ele>422.20001220703</ele>
        <time>2014-02-14T14:52:58Z</time>
      </trkpt>
      <trkpt lat="44.12262" lon="3.22639">
        <ele>421.20001220703</ele>
        <time>2014-02-14T14:53:01Z</time>
      </trkpt>
      <trkpt lat="44.12261" lon="3.22643">
        <ele>418</ele>
        <time>2014-02-14T14:53:11Z</time>
      </trkpt>
      <trkpt lat="44.12261" lon="3.22648">
        <ele>418</ele>
        <time>2014-02-14T14:53:18Z</time>
      </trkpt>
      <trkpt lat="44.12261" lon="3.22655">
        <ele>418</ele>
        <time>2014-02-14T14:55:29Z</time>
      </trkpt>
      <trkpt lat="44.12258" lon="3.22657">
        <ele>418</ele>
        <time>2014-02-14T14:55:33Z</time>
      </trkpt>
      <trkpt lat="44.12257" lon="3.22661">
        <ele>415.79998779297</ele>
        <time>2014-02-14T14:55:38Z</time>
      </trkpt>
      <trkpt lat="44.12253" lon="3.22665">
        <ele>414.40002441406</ele>
        <time>2014-02-14T14:56:04Z</time>
      </trkpt>
      <trkpt lat="44.12251" lon="3.22671">
        <ele>414.40002441406</ele>
        <time>2014-02-14T14:56:36Z</time>
      </trkpt>
      <trkpt lat="44.12249" lon="3.22676">
        <ele>414</ele>
        <time>2014-02-14T14:56:51Z</time>
      </trkpt>
      <trkpt lat="44.12246" lon="3.22681">
        <ele>412.20001220703</ele>
        <time>2014-02-14T14:57:10Z</time>
      </trkpt>
      <trkpt lat="44.12243" lon="3.22683">
        <ele>411.79998779297</ele>
        <time>2014-02-14T14:57:24Z</time>
      </trkpt>
      <trkpt lat="44.12241" lon="3.22689">
        <ele>410.20001220703</ele>
        <time>2014-02-14T14:57:44Z</time>
      </trkpt>
      <trkpt lat="44.12238" lon="3.22692">
        <ele>409</ele>
        <time>2014-02-14T14:57:53Z</time>
      </trkpt>
      <trkpt lat="44.12238" lon="3.22696">
        <ele>408.20001220703</ele>
        <time>2014-02-14T14:57:57Z</time>
      </trkpt>
      <trkpt lat="44.1224" lon="3.22701">
        <ele>407.59997558594</ele>
        <time>2014-02-14T14:58:03Z</time>
      </trkpt>
      <trkpt lat="44.12242" lon="3.227">
        <ele>404</ele>
        <time>2014-02-14T14:58:23Z</time>
      </trkpt>
      <trkpt lat="44.12245" lon="3.22702">
        <ele>404</ele>
        <time>2014-02-14T14:59:12Z</time>
      </trkpt>
      <trkpt lat="44.12248" lon="3.22703">
        <ele>404</ele>
        <time>2014-02-14T14:59:18Z</time>
      </trkpt>
      <trkpt lat="44.12252" lon="3.22705">
        <ele>401.79998779297</ele>
        <time>2014-02-14T14:59:33Z</time>
      </trkpt>
      <trkpt lat="44.12257" lon="3.22701">
        <ele>401.40002441406</ele>
        <time>2014-02-14T14:59:38Z</time>
      </trkpt>
      <trkpt lat="44.12261" lon="3.22698">
        <ele>399.79998779297</ele>
        <time>2014-02-14T14:59:45Z</time>
      </trkpt>
      <trkpt lat="44.12269" lon="3.22697">
        <ele>397.79998779297</ele>
        <time>2014-02-14T14:59:59Z</time>
      </trkpt>
      <trkpt lat="44.12271" lon="3.22697">
        <ele>397.40002441406</ele>
        <time>2014-02-14T15:00:08Z</time>
      </trkpt>
      <trkpt lat="44.12274" lon="3.22699">
        <ele>395.59997558594</ele>
        <time>2014-02-14T15:00:12Z</time>
      </trkpt>
      <trkpt lat="44.12272" lon="3.22703">
        <ele>395.20001220703</ele>
        <time>2014-02-14T15:00:21Z</time>
      </trkpt>
      <trkpt lat="44.1227" lon="3.22706">
        <ele>393.59997558594</ele>
        <time>2014-02-14T15:01:17Z</time>
      </trkpt>
      <trkpt lat="44.1227" lon="3.22709">
        <ele>393.59997558594</ele>
        <time>2014-02-14T15:01:32Z</time>
      </trkpt>
      <trkpt lat="44.12273" lon="3.22709">
        <ele>393</ele>
        <time>2014-02-14T15:01:40Z</time>
      </trkpt>
      <trkpt lat="44.12276" lon="3.22709">
        <ele>391.40002441406</ele>
        <time>2014-02-14T15:01:52Z</time>
      </trkpt>
      <trkpt lat="44.12279" lon="3.22709">
        <ele>391.40002441406</ele>
        <time>2014-02-14T15:01:56Z</time>
      </trkpt>
      <trkpt lat="44.12282" lon="3.22709">
        <ele>391.40002441406</ele>
        <time>2014-02-14T15:02:58Z</time>
      </trkpt>
      <trkpt lat="44.12287" lon="3.22707">
        <ele>389.40002441406</ele>
        <time>2014-02-14T15:03:27Z</time>
      </trkpt>
      <trkpt lat="44.1229" lon="3.22708">
        <ele>389.40002441406</ele>
        <time>2014-02-14T15:03:33Z</time>
      </trkpt>
      <trkpt lat="44.12295" lon="3.22705">
        <ele>387.40002441406</ele>
        <time>2014-02-14T15:05:11Z</time>
      </trkpt>
      <trkpt lat="44.12298" lon="3.22704">
        <ele>387</ele>
        <time>2014-02-14T15:05:28Z</time>
      </trkpt>
      <trkpt lat="44.12296" lon="3.22705">
        <ele>385.20001220703</ele>
        <time>2014-02-14T15:05:52Z</time>
      </trkpt>
      <trkpt lat="44.12293" lon="3.2271">
        <ele>383.20001220703</ele>
        <time>2014-02-14T15:06:15Z</time>
      </trkpt>
      <trkpt lat="44.12291" lon="3.22713">
        <ele>383.20001220703</ele>
        <time>2014-02-14T15:06:38Z</time>
      </trkpt>
      <trkpt lat="44.12291" lon="3.22716">
        <ele>381.20001220703</ele>
        <time>2014-02-14T15:07:23Z</time>
      </trkpt>
      <trkpt lat="44.1229" lon="3.22718">
        <ele>381.20001220703</ele>
        <time>2014-02-14T15:07:56Z</time>
      </trkpt>
      <trkpt lat="44.12288" lon="3.22721">
        <ele>381.20001220703</ele>
        <time>2014-02-14T15:08:28Z</time>
      </trkpt>
      <trkpt lat="44.12287" lon="3.22726">
        <ele>380</ele>
        <time>2014-02-14T15:08:38Z</time>
      </trkpt>
      <trkpt lat="44.12286" lon="3.22729">
        <ele>379</ele>
        <time>2014-02-14T15:09:00Z</time>
      </trkpt>
      <trkpt lat="44.12283" lon="3.22732">
        <ele>379</ele>
        <time>2014-02-14T15:09:23Z</time>
      </trkpt>
      <trkpt lat="44.1228" lon="3.22736">
        <ele>379</ele>
        <time>2014-02-14T15:09:30Z</time>
      </trkpt>
      <trkpt lat="44.12278" lon="3.22742">
        <ele>377</ele>
        <time>2014-02-14T15:09:47Z</time>
      </trkpt>
      <trkpt lat="44.12272" lon="3.22749">
        <ele>377</ele>
        <time>2014-02-14T15:10:22Z</time>
      </trkpt>
      <trkpt lat="44.12271" lon="3.22753">
        <ele>376.59997558594</ele>
        <time>2014-02-14T15:10:44Z</time>
      </trkpt>
      <trkpt lat="44.12269" lon="3.22757">
        <ele>374.79998779297</ele>
        <time>2014-02-14T15:11:01Z</time>
      </trkpt>
      <trkpt lat="44.12267" lon="3.22763">
        <ele>374.79998779297</ele>
        <time>2014-02-14T15:11:10Z</time>
      </trkpt>
      <trkpt lat="44.12263" lon="3.22766">
        <ele>374.40002441406</ele>
        <time>2014-02-14T15:11:15Z</time>
      </trkpt>
      <trkpt lat="44.12261" lon="3.22772">
        <ele>372.79998779297</ele>
        <time>2014-02-14T15:11:23Z</time>
      </trkpt>
      <trkpt lat="44.1226" lon="3.22776">
        <ele>372</ele>
        <time>2014-02-14T15:11:26Z</time>
      </trkpt>
      <trkpt lat="44.12258" lon="3.22779">
        <ele>370.59997558594</ele>
        <time>2014-02-14T15:11:29Z</time>
      </trkpt>
      <trkpt lat="44.12257" lon="3.22782">
        <ele>370.59997558594</ele>
        <time>2014-02-14T15:11:40Z</time>
      </trkpt>
      <trkpt lat="44.12256" lon="3.22786">
        <ele>369.20001220703</ele>
        <time>2014-02-14T15:11:51Z</time>
      </trkpt>
      <trkpt lat="44.12256" lon="3.22792">
        <ele>368.40002441406</ele>
        <time>2014-02-14T15:12:57Z</time>
      </trkpt>
      <trkpt lat="44.12257" lon="3.22795">
        <ele>366.40002441406</ele>
        <time>2014-02-14T15:13:32Z</time>
      </trkpt>
      <trkpt lat="44.12258" lon="3.22793">
        <ele>366.40002441406</ele>
        <time>2014-02-14T15:14:24Z</time>
      </trkpt>
      <trkpt lat="44.1226" lon="3.22794">
        <ele>366.40002441406</ele>
        <time>2014-02-14T15:14:46Z</time>
      </trkpt>
      <trkpt lat="44.12264" lon="3.22794">
        <ele>366.40002441406</ele>
        <time>2014-02-14T15:15:54Z</time>
      </trkpt>
      <trkpt lat="44.1227" lon="3.22797">
        <ele>366.40002441406</ele>
        <time>2014-02-14T15:16:10Z</time>
      </trkpt>
      <trkpt lat="44.12273" lon="3.22796">
        <ele>364.20001220703</ele>
        <time>2014-02-14T15:16:45Z</time>
      </trkpt>
      <trkpt lat="44.12278" lon="3.22796">
        <ele>364.20001220703</ele>
        <time>2014-02-14T15:17:12Z</time>
      </trkpt>
      <trkpt lat="44.12281" lon="3.22793">
        <ele>363.79998779297</ele>
        <time>2014-02-14T15:17:15Z</time>
      </trkpt>
      <trkpt lat="44.12284" lon="3.22792">
        <ele>362</ele>
        <time>2014-02-14T15:17:19Z</time>
      </trkpt>
      <trkpt lat="44.12287" lon="3.22789">
        <ele>362</ele>
        <time>2014-02-14T15:17:35Z</time>
      </trkpt>
      <trkpt lat="44.12291" lon="3.22787">
        <ele>359.79998779297</ele>
        <time>2014-02-14T15:17:59Z</time>
      </trkpt>
      <trkpt lat="44.12295" lon="3.22785">
        <ele>359.79998779297</ele>
        <time>2014-02-14T15:19:18Z</time>
      </trkpt>
      <trkpt lat="44.12299" lon="3.22786">
        <ele>359.40002441406</ele>
        <time>2014-02-14T15:19:30Z</time>
      </trkpt>
      <trkpt lat="44.12302" lon="3.22787">
        <ele>357.79998779297</ele>
        <time>2014-02-14T15:19:41Z</time>
      </trkpt>
      <trkpt lat="44.12305" lon="3.22789">
        <ele>357.79998779297</ele>
        <time>2014-02-14T15:19:48Z</time>
      </trkpt>
      <trkpt lat="44.12308" lon="3.22787">
        <ele>357</ele>
        <time>2014-02-14T15:20:07Z</time>
      </trkpt>
      <trkpt lat="44.12311" lon="3.22786">
        <ele>355.59997558594</ele>
        <time>2014-02-14T15:20:10Z</time>
      </trkpt>
      <trkpt lat="44.12314" lon="3.22783">
        <ele>355.59997558594</ele>
        <time>2014-02-14T15:20:20Z</time>
      </trkpt>
      <trkpt lat="44.12317" lon="3.22783">
        <ele>353.40002441406</ele>
        <time>2014-02-14T15:20:26Z</time>
      </trkpt>
      <trkpt lat="44.12323" lon="3.22783">
        <ele>352.59997558594</ele>
        <time>2014-02-14T15:20:30Z</time>
      </trkpt>
      <trkpt lat="44.12327" lon="3.22781">
        <ele>351.40002441406</ele>
        <time>2014-02-14T15:20:41Z</time>
      </trkpt>
      <trkpt lat="44.12327" lon="3.2278">
        <ele>351</ele>
        <time>2014-02-14T15:20:56Z</time>
      </trkpt>
      <trkpt lat="44.12331" lon="3.22778">
        <ele>349.40002441406</ele>
        <time>2014-02-14T15:21:00Z</time>
      </trkpt>
      <trkpt lat="44.12335" lon="3.22778">
        <ele>349.40002441406</ele>
        <time>2014-02-14T15:21:07Z</time>
      </trkpt>
      <trkpt lat="44.12336" lon="3.22776">
        <ele>349.40002441406</ele>
        <time>2014-02-14T15:21:40Z</time>
      </trkpt>
      <trkpt lat="44.1234" lon="3.22776">
        <ele>347.20001220703</ele>
        <time>2014-02-14T15:22:26Z</time>
      </trkpt>
      <trkpt lat="44.12343" lon="3.22775">
        <ele>345.79998779297</ele>
        <time>2014-02-14T15:22:33Z</time>
      </trkpt>
      <trkpt lat="44.12347" lon="3.22773">
        <ele>344.59997558594</ele>
        <time>2014-02-14T15:23:00Z</time>
      </trkpt>
      <trkpt lat="44.12355" lon="3.22772">
        <ele>343</ele>
        <time>2014-02-14T15:23:16Z</time>
      </trkpt>
      <trkpt lat="44.12358" lon="3.22764">
        <ele>343</ele>
        <time>2014-02-14T15:23:32Z</time>
      </trkpt>
      <trkpt lat="44.1236" lon="3.22762">
        <ele>342.59997558594</ele>
        <time>2014-02-14T15:23:53Z</time>
      </trkpt>
      <trkpt lat="44.12363" lon="3.22761">
        <ele>341.40002441406</ele>
        <time>2014-02-14T15:23:56Z</time>
      </trkpt>
      <trkpt lat="44.12368" lon="3.22762">
        <ele>341</ele>
        <time>2014-02-14T15:24:00Z</time>
      </trkpt>
      <trkpt lat="44.1237" lon="3.22762">
        <ele>340.40002441406</ele>
        <time>2014-02-14T15:24:16Z</time>
      </trkpt>
      <trkpt lat="44.12373" lon="3.22761">
        <ele>339.59997558594</ele>
        <time>2014-02-14T15:24:20Z</time>
      </trkpt>
      <trkpt lat="44.12375" lon="3.22762">
        <ele>340.20001220703</ele>
        <time>2014-02-14T15:24:33Z</time>
      </trkpt>
      <trkpt lat="44.12377" lon="3.22757">
        <ele>340.20001220703</ele>
        <time>2014-02-14T15:24:56Z</time>
      </trkpt>
      <trkpt lat="44.12379" lon="3.22756">
        <ele>339</ele>
        <time>2014-02-14T15:25:06Z</time>
      </trkpt>
      <trkpt lat="44.12381" lon="3.22753">
        <ele>338.20001220703</ele>
        <time>2014-02-14T15:25:08Z</time>
      </trkpt>
      <trkpt lat="44.12383" lon="3.2275">
        <ele>338.20001220703</ele>
        <time>2014-02-14T15:25:31Z</time>
      </trkpt>
      <trkpt lat="44.12385" lon="3.22743">
        <ele>336.20001220703</ele>
        <time>2014-02-14T15:26:34Z</time>
      </trkpt>
      <trkpt lat="44.12388" lon="3.22742">
        <ele>336.20001220703</ele>
        <time>2014-02-14T15:27:03Z</time>
      </trkpt>
      <trkpt lat="44.1239" lon="3.22738">
        <ele>336.20001220703</ele>
        <time>2014-02-14T15:27:58Z</time>
      </trkpt>
      <trkpt lat="44.12394" lon="3.22732">
        <ele>336.20001220703</ele>
        <time>2014-02-14T15:28:04Z</time>
      </trkpt>
      <trkpt lat="44.12397" lon="3.22728">
        <ele>336.20001220703</ele>
        <time>2014-02-14T15:28:19Z</time>
      </trkpt>
      <trkpt lat="44.12399" lon="3.22723">
        <ele>336.20001220703</ele>
        <time>2014-02-14T15:29:00Z</time>
      </trkpt>
      <trkpt lat="44.12399" lon="3.22722">
        <ele>334.20001220703</ele>
        <time>2014-02-14T15:29:11Z</time>
      </trkpt>
      <trkpt lat="44.12401" lon="3.22718">
        <ele>334.20001220703</ele>
        <time>2014-02-14T15:29:27Z</time>
      </trkpt>
      <trkpt lat="44.12401" lon="3.22714">
        <ele>334.20001220703</ele>
        <time>2014-02-14T15:29:34Z</time>
      </trkpt>
      <trkpt lat="44.12403" lon="3.22708">
        <ele>334.20001220703</ele>
        <time>2014-02-14T15:29:40Z</time>
      </trkpt>
      <trkpt lat="44.12404" lon="3.22703">
        <ele>334.20001220703</ele>
        <time>2014-02-14T15:29:47Z</time>
      </trkpt>
      <trkpt lat="44.12405" lon="3.22699">
        <ele>333.79998779297</ele>
        <time>2014-02-14T15:30:04Z</time>
      </trkpt>
      <trkpt lat="44.12406" lon="3.22695">
        <ele>332.20001220703</ele>
        <time>2014-02-14T15:30:08Z</time>
      </trkpt>
      <trkpt lat="44.12406" lon="3.22691">
        <ele>332.20001220703</ele>
        <time>2014-02-14T15:30:21Z</time>
      </trkpt>
      <trkpt lat="44.12407" lon="3.22687">
        <ele>333</ele>
        <time>2014-02-14T15:30:50Z</time>
      </trkpt>
      <trkpt lat="44.12408" lon="3.22683">
        <ele>334.20001220703</ele>
        <time>2014-02-14T15:30:58Z</time>
      </trkpt>
      <trkpt lat="44.12408" lon="3.22676">
        <ele>335</ele>
        <time>2014-02-14T15:31:12Z</time>
      </trkpt>
      <trkpt lat="44.12406" lon="3.22671">
        <ele>335.79998779297</ele>
        <time>2014-02-14T15:31:14Z</time>
      </trkpt>
      <trkpt lat="44.12407" lon="3.22665">
        <ele>336.40002441406</ele>
        <time>2014-02-14T15:31:19Z</time>
      </trkpt>
      <trkpt lat="44.12407" lon="3.22658">
        <ele>336.40002441406</ele>
        <time>2014-02-14T15:31:26Z</time>
      </trkpt>
      <trkpt lat="44.12407" lon="3.22654">
        <ele>336.79998779297</ele>
        <time>2014-02-14T15:31:29Z</time>
      </trkpt>
      <trkpt lat="44.12406" lon="3.22649">
        <ele>338.40002441406</ele>
        <time>2014-02-14T15:31:41Z</time>
      </trkpt>
      <trkpt lat="44.12405" lon="3.22643">
        <ele>338.40002441406</ele>
        <time>2014-02-14T15:31:58Z</time>
      </trkpt>
      <trkpt lat="44.12405" lon="3.22637">
        <ele>340.40002441406</ele>
        <time>2014-02-14T15:32:12Z</time>
      </trkpt>
      <trkpt lat="44.12404" lon="3.2263">
        <ele>342.59997558594</ele>
        <time>2014-02-14T15:32:47Z</time>
      </trkpt>
      <trkpt lat="44.12403" lon="3.22621">
        <ele>343</ele>
        <time>2014-02-14T15:32:54Z</time>
      </trkpt>
      <trkpt lat="44.12403" lon="3.22616">
        <ele>344.20001220703</ele>
        <time>2014-02-14T15:32:57Z</time>
      </trkpt>
      <trkpt lat="44.12404" lon="3.22607">
        <ele>344.59997558594</ele>
        <time>2014-02-14T15:33:16Z</time>
      </trkpt>
      <trkpt lat="44.12404" lon="3.22591">
        <ele>345</ele>
        <time>2014-02-14T15:33:22Z</time>
      </trkpt>
      <trkpt lat="44.12402" lon="3.22585">
        <ele>346.59997558594</ele>
        <time>2014-02-14T15:33:35Z</time>
      </trkpt>
      <trkpt lat="44.12402" lon="3.22577">
        <ele>346.59997558594</ele>
        <time>2014-02-14T15:33:44Z</time>
      </trkpt>
      <trkpt lat="44.12401" lon="3.22569">
        <ele>347</ele>
        <time>2014-02-14T15:33:50Z</time>
      </trkpt>
      <trkpt lat="44.124" lon="3.22565">
        <ele>348.20001220703</ele>
        <time>2014-02-14T15:33:53Z</time>
      </trkpt>
      <trkpt lat="44.12399" lon="3.22558">
        <ele>348.59997558594</ele>
        <time>2014-02-14T15:34:02Z</time>
      </trkpt>
      <trkpt lat="44.12397" lon="3.22553">
        <ele>350</ele>
        <time>2014-02-14T15:34:10Z</time>
      </trkpt>
      <trkpt lat="44.12397" lon="3.22549">
        <ele>350.79998779297</ele>
        <time>2014-02-14T15:34:12Z</time>
      </trkpt>
      <trkpt lat="44.12394" lon="3.22545">
        <ele>350.79998779297</ele>
        <time>2014-02-14T15:34:31Z</time>
      </trkpt>
      <trkpt lat="44.12392" lon="3.22538">
        <ele>350.79998779297</ele>
        <time>2014-02-14T15:34:38Z</time>
      </trkpt>
      <trkpt lat="44.12392" lon="3.22533">
        <ele>350.79998779297</ele>
        <time>2014-02-14T15:34:48Z</time>
      </trkpt>
      <trkpt lat="44.12392" lon="3.22529">
        <ele>350.79998779297</ele>
        <time>2014-02-14T15:35:17Z</time>
      </trkpt>
      <trkpt lat="44.12389" lon="3.22519">
        <ele>350.79998779297</ele>
        <time>2014-02-14T15:36:05Z</time>
      </trkpt>
      <trkpt lat="44.12388" lon="3.2251">
        <ele>350.79998779297</ele>
        <time>2014-02-14T15:36:14Z</time>
      </trkpt>
      <trkpt lat="44.12387" lon="3.22505">
        <ele>350.79998779297</ele>
        <time>2014-02-14T15:36:24Z</time>
      </trkpt>
      <trkpt lat="44.12387" lon="3.22498">
        <ele>350.79998779297</ele>
        <time>2014-02-14T15:36:40Z</time>
      </trkpt>
      <trkpt lat="44.12384" lon="3.2249">
        <ele>350.79998779297</ele>
        <time>2014-02-14T15:37:14Z</time>
      </trkpt>
      <trkpt lat="44.12381" lon="3.22489">
        <ele>350.79998779297</ele>
        <time>2014-02-14T15:37:24Z</time>
      </trkpt>
      <trkpt lat="44.12381" lon="3.22483">
        <ele>351.20001220703</ele>
        <time>2014-02-14T15:37:41Z</time>
      </trkpt>
      <trkpt lat="44.12377" lon="3.22482">
        <ele>352.79998779297</ele>
        <time>2014-02-14T15:37:49Z</time>
      </trkpt>
      <trkpt lat="44.12375" lon="3.2248">
        <ele>352.79998779297</ele>
        <time>2014-02-14T15:38:06Z</time>
      </trkpt>
      <trkpt lat="44.12375" lon="3.22475">
        <ele>352.79998779297</ele>
        <time>2014-02-14T15:38:13Z</time>
      </trkpt>
      <trkpt lat="44.12374" lon="3.22469">
        <ele>352.79998779297</ele>
        <time>2014-02-14T15:38:21Z</time>
      </trkpt>
      <trkpt lat="44.12375" lon="3.2247">
        <ele>352.79998779297</ele>
        <time>2014-02-14T15:38:41Z</time>
      </trkpt>
      <trkpt lat="44.12376" lon="3.22464">
        <ele>352.79998779297</ele>
        <time>2014-02-14T15:38:45Z</time>
      </trkpt>
      <trkpt lat="44.12373" lon="3.22461">
        <ele>352.79998779297</ele>
        <time>2014-02-14T15:38:50Z</time>
      </trkpt>
      <trkpt lat="44.12373" lon="3.22456">
        <ele>352.79998779297</ele>
        <time>2014-02-14T15:39:04Z</time>
      </trkpt>
      <trkpt lat="44.1237" lon="3.22448">
        <ele>352.79998779297</ele>
        <time>2014-02-14T15:40:26Z</time>
      </trkpt>
      <trkpt lat="44.12364" lon="3.22441">
        <ele>352.79998779297</ele>
        <time>2014-02-14T15:40:40Z</time>
      </trkpt>
      <trkpt lat="44.1236" lon="3.22439">
        <ele>352.79998779297</ele>
        <time>2014-02-14T15:40:48Z</time>
      </trkpt>
      <trkpt lat="44.12359" lon="3.22436">
        <ele>352.79998779297</ele>
        <time>2014-02-14T15:41:10Z</time>
      </trkpt>
      <trkpt lat="44.12358" lon="3.22434">
        <ele>352.79998779297</ele>
        <time>2014-02-14T15:41:34Z</time>
      </trkpt>
      <trkpt lat="44.12353" lon="3.22429">
        <ele>352.79998779297</ele>
        <time>2014-02-14T15:41:51Z</time>
      </trkpt>
      <trkpt lat="44.12352" lon="3.22424">
        <ele>352.79998779297</ele>
        <time>2014-02-14T15:42:41Z</time>
      </trkpt>
      <trkpt lat="44.12352" lon="3.22423">
        <ele>352.79998779297</ele>
        <time>2014-02-14T15:43:18Z</time>
      </trkpt>
      <trkpt lat="44.12353" lon="3.22421">
        <ele>352.79998779297</ele>
        <time>2014-02-14T15:43:45Z</time>
      </trkpt>
      <trkpt lat="44.1235" lon="3.22421">
        <ele>352.79998779297</ele>
        <time>2014-02-14T15:44:17Z</time>
      </trkpt>
      <trkpt lat="44.12349" lon="3.22418">
        <ele>352.79998779297</ele>
        <time>2014-02-14T15:44:32Z</time>
      </trkpt>
      <trkpt lat="44.12344" lon="3.22412">
        <ele>352.79998779297</ele>
        <time>2014-02-14T15:44:38Z</time>
      </trkpt>
      <trkpt lat="44.12341" lon="3.22408">
        <ele>352.79998779297</ele>
        <time>2014-02-14T15:44:54Z</time>
      </trkpt>
      <trkpt lat="44.12337" lon="3.22401">
        <ele>352.79998779297</ele>
        <time>2014-02-14T15:45:24Z</time>
      </trkpt>
      <trkpt lat="44.12332" lon="3.22398">
        <ele>352.79998779297</ele>
        <time>2014-02-14T15:45:31Z</time>
      </trkpt>
      <trkpt lat="44.12329" lon="3.22395">
        <ele>352.79998779297</ele>
        <time>2014-02-14T15:46:53Z</time>
      </trkpt>
      <trkpt lat="44.12328" lon="3.22392">
        <ele>350.79998779297</ele>
        <time>2014-02-14T15:47:36Z</time>
      </trkpt>
      <trkpt lat="44.12326" lon="3.22389">
        <ele>350.79998779297</ele>
        <time>2014-02-14T15:47:43Z</time>
      </trkpt>
      <trkpt lat="44.12322" lon="3.22387">
        <ele>350.79998779297</ele>
        <time>2014-02-14T15:48:05Z</time>
      </trkpt>
      <trkpt lat="44.12318" lon="3.22382">
        <ele>350.79998779297</ele>
        <time>2014-02-14T15:48:13Z</time>
      </trkpt>
      <trkpt lat="44.12314" lon="3.22375">
        <ele>350.79998779297</ele>
        <time>2014-02-14T15:48:26Z</time>
      </trkpt>
      <trkpt lat="44.1231" lon="3.2237">
        <ele>350.79998779297</ele>
        <time>2014-02-14T15:48:34Z</time>
      </trkpt>
      <trkpt lat="44.12312" lon="3.22368">
        <ele>350.79998779297</ele>
        <time>2014-02-14T15:48:59Z</time>
      </trkpt>
      <trkpt lat="44.1231" lon="3.22365">
        <ele>350.40002441406</ele>
        <time>2014-02-14T15:49:07Z</time>
      </trkpt>
      <trkpt lat="44.12305" lon="3.22363">
        <ele>348.79998779297</ele>
        <time>2014-02-14T15:49:23Z</time>
      </trkpt>
      <trkpt lat="44.12304" lon="3.22361">
        <ele>348.79998779297</ele>
        <time>2014-02-14T15:50:05Z</time>
      </trkpt>
      <trkpt lat="44.12304" lon="3.22355">
        <ele>348.79998779297</ele>
        <time>2014-02-14T15:50:11Z</time>
      </trkpt>
      <trkpt lat="44.123" lon="3.22352">
        <ele>348.79998779297</ele>
        <time>2014-02-14T15:50:29Z</time>
      </trkpt>
      <trkpt lat="44.12298" lon="3.2235">
        <ele>348.79998779297</ele>
        <time>2014-02-14T15:50:54Z</time>
      </trkpt>
      <trkpt lat="44.12295" lon="3.22341">
        <ele>348.40002441406</ele>
        <time>2014-02-14T15:51:07Z</time>
      </trkpt>
      <trkpt lat="44.12294" lon="3.22341">
        <ele>346.79998779297</ele>
        <time>2014-02-14T15:51:22Z</time>
      </trkpt>
      <trkpt lat="44.12293" lon="3.22337">
        <ele>346.79998779297</ele>
        <time>2014-02-14T15:51:48Z</time>
      </trkpt>
      <trkpt lat="44.12294" lon="3.2233">
        <ele>346.79998779297</ele>
        <time>2014-02-14T15:52:10Z</time>
      </trkpt>
      <trkpt lat="44.12293" lon="3.22329">
        <ele>346.79998779297</ele>
        <time>2014-02-14T15:52:42Z</time>
      </trkpt>
      <trkpt lat="44.12286" lon="3.22324">
        <ele>346.79998779297</ele>
        <time>2014-02-14T15:52:50Z</time>
      </trkpt>
      <trkpt lat="44.12283" lon="3.22317">
        <ele>346.40002441406</ele>
        <time>2014-02-14T15:52:55Z</time>
      </trkpt>
      <trkpt lat="44.12283" lon="3.22313">
        <ele>344.59997558594</ele>
        <time>2014-02-14T15:53:03Z</time>
      </trkpt>
      <trkpt lat="44.12284" lon="3.22306">
        <ele>344.59997558594</ele>
        <time>2014-02-14T15:53:10Z</time>
      </trkpt>
      <trkpt lat="44.12278" lon="3.22299">
        <ele>344.59997558594</ele>
        <time>2014-02-14T15:53:40Z</time>
      </trkpt>
      <trkpt lat="44.12274" lon="3.2229">
        <ele>344.59997558594</ele>
        <time>2014-02-14T15:53:53Z</time>
      </trkpt>
      <trkpt lat="44.12273" lon="3.22285">
        <ele>344.59997558594</ele>
        <time>2014-02-14T15:54:00Z</time>
      </trkpt>
      <trkpt lat="44.12271" lon="3.22281">
        <ele>344.59997558594</ele>
        <time>2014-02-14T15:54:35Z</time>
      </trkpt>
      <trkpt lat="44.12263" lon="3.2227">
        <ele>342.59997558594</ele>
        <time>2014-02-14T15:54:58Z</time>
      </trkpt>
      <trkpt lat="44.12263" lon="3.22261">
        <ele>342.59997558594</ele>
        <time>2014-02-14T15:55:06Z</time>
      </trkpt>
      <trkpt lat="44.12261" lon="3.22259">
        <ele>342.59997558594</ele>
        <time>2014-02-14T15:55:31Z</time>
      </trkpt>
      <trkpt lat="44.1226" lon="3.22251">
        <ele>342.59997558594</ele>
        <time>2014-02-14T15:55:40Z</time>
      </trkpt>
      <trkpt lat="44.12259" lon="3.22246">
        <ele>342.59997558594</ele>
        <time>2014-02-14T15:55:46Z</time>
      </trkpt>
      <trkpt lat="44.12255" lon="3.22242">
        <ele>342.59997558594</ele>
        <time>2014-02-14T15:56:04Z</time>
      </trkpt>
      <trkpt lat="44.12256" lon="3.22239">
        <ele>342.59997558594</ele>
        <time>2014-02-14T15:56:12Z</time>
      </trkpt>
      <trkpt lat="44.12255" lon="3.22234">
        <ele>342.59997558594</ele>
        <time>2014-02-14T15:56:19Z</time>
      </trkpt>
      <trkpt lat="44.12256" lon="3.2223">
        <ele>341.20001220703</ele>
        <time>2014-02-14T15:56:29Z</time>
      </trkpt>
      <trkpt lat="44.12257" lon="3.22225">
        <ele>341.40002441406</ele>
        <time>2014-02-14T15:56:42Z</time>
      </trkpt>
      <trkpt lat="44.12256" lon="3.22223">
        <ele>341.40002441406</ele>
        <time>2014-02-14T15:56:58Z</time>
      </trkpt>
      <trkpt lat="44.12256" lon="3.22219">
        <ele>341.40002441406</ele>
        <time>2014-02-14T15:57:05Z</time>
      </trkpt>
      <trkpt lat="44.12258" lon="3.22213">
        <ele>341.40002441406</ele>
        <time>2014-02-14T15:57:10Z</time>
      </trkpt>
      <trkpt lat="44.12258" lon="3.22209">
        <ele>341.40002441406</ele>
        <time>2014-02-14T15:57:26Z</time>
      </trkpt>
      <trkpt lat="44.12254" lon="3.22204">
        <ele>341.40002441406</ele>
        <time>2014-02-14T15:57:32Z</time>
      </trkpt>
      <trkpt lat="44.12251" lon="3.22197">
        <ele>341.40002441406</ele>
        <time>2014-02-14T15:57:38Z</time>
      </trkpt>
      <trkpt lat="44.12246" lon="3.2219">
        <ele>341.40002441406</ele>
        <time>2014-02-14T15:57:45Z</time>
      </trkpt>
      <trkpt lat="44.12244" lon="3.22186">
        <ele>341.40002441406</ele>
        <time>2014-02-14T15:58:04Z</time>
      </trkpt>
      <trkpt lat="44.12245" lon="3.22178">
        <ele>341.40002441406</ele>
        <time>2014-02-14T15:58:10Z</time>
      </trkpt>
      <trkpt lat="44.12244" lon="3.22173">
        <ele>341.40002441406</ele>
        <time>2014-02-14T15:58:22Z</time>
      </trkpt>
      <trkpt lat="44.12241" lon="3.22166">
        <ele>341.40002441406</ele>
        <time>2014-02-14T15:58:29Z</time>
      </trkpt>
      <trkpt lat="44.12242" lon="3.22161">
        <ele>341.40002441406</ele>
        <time>2014-02-14T15:58:47Z</time>
      </trkpt>
      <trkpt lat="44.12238" lon="3.22153">
        <ele>341</ele>
        <time>2014-02-14T15:58:59Z</time>
      </trkpt>
      <trkpt lat="44.12236" lon="3.2215">
        <ele>339.20001220703</ele>
        <time>2014-02-14T15:59:03Z</time>
      </trkpt>
      <trkpt lat="44.12233" lon="3.22144">
        <ele>339.20001220703</ele>
        <time>2014-02-14T15:59:14Z</time>
      </trkpt>
      <trkpt lat="44.12234" lon="3.22142">
        <ele>338.40002441406</ele>
        <time>2014-02-14T15:59:19Z</time>
      </trkpt>
      <trkpt lat="44.12237" lon="3.22143">
        <ele>337.20001220703</ele>
        <time>2014-02-14T15:59:26Z</time>
      </trkpt>
      <trkpt lat="44.1224" lon="3.22141">
        <ele>336.40002441406</ele>
        <time>2014-02-14T15:59:30Z</time>
      </trkpt>
      <trkpt lat="44.12241" lon="3.22137">
        <ele>335</ele>
        <time>2014-02-14T15:59:33Z</time>
      </trkpt>
      <trkpt lat="44.12242" lon="3.22133">
        <ele>335</ele>
        <time>2014-02-14T15:59:37Z</time>
      </trkpt>
      <trkpt lat="44.12239" lon="3.2213">
        <ele>332.79998779297</ele>
        <time>2014-02-14T16:00:12Z</time>
      </trkpt>
      <trkpt lat="44.12238" lon="3.22121">
        <ele>332.79998779297</ele>
        <time>2014-02-14T16:00:26Z</time>
      </trkpt>
      <trkpt lat="44.12236" lon="3.22122">
        <ele>330.79998779297</ele>
        <time>2014-02-14T16:01:33Z</time>
      </trkpt>
      <trkpt lat="44.12239" lon="3.22123">
        <ele>328.79998779297</ele>
        <time>2014-02-14T16:02:22Z</time>
      </trkpt>
      <trkpt lat="44.12243" lon="3.22124">
        <ele>328.79998779297</ele>
        <time>2014-02-14T16:02:46Z</time>
      </trkpt>
      <trkpt lat="44.12247" lon="3.22123">
        <ele>328.79998779297</ele>
        <time>2014-02-14T16:03:02Z</time>
      </trkpt>
      <trkpt lat="44.12246" lon="3.22126">
        <ele>328.40002441406</ele>
        <time>2014-02-14T16:03:24Z</time>
      </trkpt>
      <trkpt lat="44.12246" lon="3.2213">
        <ele>326.59997558594</ele>
        <time>2014-02-14T16:03:32Z</time>
      </trkpt>
      <trkpt lat="44.12246" lon="3.2213">
        <ele>326.59997558594</ele>
        <time>2014-02-14T16:03:37Z</time>
      </trkpt>
    </trkseg>
  </trk>
</gpx>